Aviation Digital Data Service (ADDS)

Output produced by METARs form (0102 UTC 06 December 2019)
found at http://www.aviationweather.gov/metar/data/
 
METAR text: KHAF 060100Z AUTO 18007KT 8SM OVC034 13/12 A3004 RMK AO2
Conditions at: KHAF (HALF MOON BAY , CA, US) observed 0100 UTC 06 December 2019
Temperature: 13.0°C (55°F)
Dewpoint: 12.0°C (54°F) [RH = 94%]
Pressure (altimeter): 30.04 inches Hg (1017.4 mb)
Winds: from the S (180 degrees) at 8 MPH (7 knots; 3.6 m/s)
Visibility: 8 miles (13 km)
Ceiling: 3400 feet AGL
Clouds: overcast cloud deck at 3400 feet AGL
Weather: automated observation with no human augmentation;
there may or may not be significant weather present at this time

METAR text: KHAF 060055Z AUTO 19007KT 7SM FEW026 OVC034 13/12 A3003 RMK AO2
Conditions at: KHAF (HALF MOON BAY , CA, US) observed 0055 UTC 06 December 2019
Temperature: 13.0°C (55°F)
Dewpoint: 12.0°C (54°F) [RH = 94%]
Pressure (altimeter): 30.03 inches Hg (1017.0 mb)
Winds: from the S (190 degrees) at 8 MPH (7 knots; 3.6 m/s)
Visibility: 7 miles (11 km)
Ceiling: 3400 feet AGL
Clouds: few clouds at 2600 feet AGL
overcast cloud deck at 3400 feet AGL
Weather: automated observation with no human augmentation;
there may or may not be significant weather present at this time

METAR text: KHAF 060040Z AUTO 17006KT 8SM SCT022 SCT026 OVC038 14/12 A3004 RMK AO2
Conditions at: KHAF (HALF MOON BAY , CA, US) observed 0040 UTC 06 December 2019
Temperature: 14.0°C (57°F)
Dewpoint: 12.0°C (54°F) [RH = 88%]
Pressure (altimeter): 30.04 inches Hg (1017.4 mb)
Winds: from the S (170 degrees) at 7 MPH (6 knots; 3.1 m/s)
Visibility: 8 miles (13 km)
Ceiling: 3800 feet AGL
Clouds: scattered clouds at 2200 feet AGL
scattered clouds at 2600 feet AGL
overcast cloud deck at 3800 feet AGL
Weather: automated observation with no human augmentation;
there may or may not be significant weather present at this time

METAR text: KHAF 060035Z AUTO 20008KT 9SM BKN022 BKN026 OVC038 14/12 A3004 RMK AO2
Conditions at: KHAF (HALF MOON BAY , CA, US) observed 0035 UTC 06 December 2019
Temperature: 14.0°C (57°F)
Dewpoint: 12.0°C (54°F) [RH = 88%]
Pressure (altimeter): 30.04 inches Hg (1017.4 mb)
Winds: from the SSW (200 degrees) at 9 MPH (8 knots; 4.1 m/s)
Visibility: 9 miles (14 km)
Ceiling: 2200 feet AGL
Clouds: broken clouds at 2200 feet AGL
broken clouds at 2600 feet AGL
overcast cloud deck at 3800 feet AGL
Weather: automated observation with no human augmentation;
there may or may not be significant weather present at this time

METAR text: KHAF 060020Z AUTO 18007KT 7SM OVC022 13/12 A3004 RMK AO2
Conditions at: KHAF (HALF MOON BAY , CA, US) observed 0020 UTC 06 December 2019
Temperature: 13.0°C (55°F)
Dewpoint: 12.0°C (54°F) [RH = 94%]
Pressure (altimeter): 30.04 inches Hg (1017.4 mb)
Winds: from the S (180 degrees) at 8 MPH (7 knots; 3.6 m/s)
Visibility: 7 miles (11 km)
Ceiling: 2200 feet AGL
Clouds: overcast cloud deck at 2200 feet AGL
Weather: automated observation with no human augmentation;
there may or may not be significant weather present at this time

METAR text: KHAF 060015Z AUTO 18007KT 7SM BKN019 OVC026 13/12 A3004 RMK AO2
Conditions at: KHAF (HALF MOON BAY , CA, US) observed 0015 UTC 06 December 2019
Temperature: 13.0°C (55°F)
Dewpoint: 12.0°C (54°F) [RH = 94%]
Pressure (altimeter): 30.04 inches Hg (1017.4 mb)
Winds: from the S (180 degrees) at 8 MPH (7 knots; 3.6 m/s)
Visibility: 7 miles (11 km)
Ceiling: 1900 feet AGL
Clouds: broken clouds at 1900 feet AGL
overcast cloud deck at 2600 feet AGL
Weather: automated observation with no human augmentation;
there may or may not be significant weather present at this time

METAR text: KHAF 052355Z AUTO 15006KT 8SM BKN025 OVC031 13/12 A3004 RMK AO2
Conditions at: KHAF (HALF MOON BAY , CA, US) observed 2355 UTC 05 December 2019
Temperature: 13.0°C (55°F)
Dewpoint: 12.0°C (54°F) [RH = 94%]
Pressure (altimeter): 30.04 inches Hg (1017.4 mb)
Winds: from the SSE (150 degrees) at 7 MPH (6 knots; 3.1 m/s)
Visibility: 8 miles (13 km)
Ceiling: 2500 feet AGL
Clouds: broken clouds at 2500 feet AGL
overcast cloud deck at 3100 feet AGL
Weather: automated observation with no human augmentation;
there may or may not be significant weather present at this time

METAR text: KHAF 052340Z AUTO 16009KT 8SM FEW019 BKN025 OVC031 13/12 A3004 RMK AO2
Conditions at: KHAF (HALF MOON BAY , CA, US) observed 2340 UTC 05 December 2019
Temperature: 13.0°C (55°F)
Dewpoint: 12.0°C (54°F) [RH = 94%]
Pressure (altimeter): 30.04 inches Hg (1017.4 mb)
Winds: from the SSE (160 degrees) at 10 MPH (9 knots; 4.6 m/s)
Visibility: 8 miles (13 km)
Ceiling: 2500 feet AGL
Clouds: few clouds at 1900 feet AGL
broken clouds at 2500 feet AGL
overcast cloud deck at 3100 feet AGL
Weather: automated observation with no human augmentation;
there may or may not be significant weather present at this time

METAR text: KHAF 052335Z AUTO 17010G14KT 5SM BR SCT016 OVC027 13/12 A3004 RMK AO2
Conditions at: KHAF (HALF MOON BAY , CA, US) observed 2335 UTC 05 December 2019
Temperature: 13.0°C (55°F)
Dewpoint: 12.0°C (54°F) [RH = 94%]
Pressure (altimeter): 30.04 inches Hg (1017.4 mb)
Winds: from the S (170 degrees) at 12 MPH (10 knots; 5.1 m/s)
gusting to 16 MPH (14 knots; 7.2 m/s)
Visibility: 5 miles ( 8 km)
Ceiling: 2700 feet AGL
Clouds: scattered clouds at 1600 feet AGL
overcast cloud deck at 2700 feet AGL
Weather: BR  (mist)

METAR text: KHAF 052320Z AUTO 18008KT 2 1/2SM BR BKN016 OVC024 13/12 A3005 RMK AO2
Conditions at: KHAF (HALF MOON BAY , CA, US) observed 2320 UTC 05 December 2019
Temperature: 13.0°C (55°F)
Dewpoint: 12.0°C (54°F) [RH = 94%]
Pressure (altimeter): 30.05 inches Hg (1017.7 mb)
Winds: from the S (180 degrees) at 9 MPH (8 knots; 4.1 m/s)
Visibility: 2.50 miles (4.02 km)
Ceiling: 1600 feet AGL
Clouds: broken clouds at 1600 feet AGL
overcast cloud deck at 2400 feet AGL
Weather: BR  (mist)

METAR text: KHAF 052315Z AUTO 17009KT 2SM BR BKN016 OVC021 13/12 A3005 RMK AO2
Conditions at: KHAF (HALF MOON BAY , CA, US) observed 2315 UTC 05 December 2019
Temperature: 13.0°C (55°F)
Dewpoint: 12.0°C (54°F) [RH = 94%]
Pressure (altimeter): 30.05 inches Hg (1017.7 mb)
Winds: from the S (170 degrees) at 10 MPH (9 knots; 4.6 m/s)
Visibility: 2.00 miles (3.22 km)
Ceiling: 1600 feet AGL
Clouds: broken clouds at 1600 feet AGL
overcast cloud deck at 2100 feet AGL
Weather: BR  (mist)

METAR text: KHAF 052300Z AUTO 19013G18KT 5SM BR BKN016 OVC025 14/12 A3005 RMK AO2
Conditions at: KHAF (HALF MOON BAY , CA, US) observed 2300 UTC 05 December 2019
Temperature: 14.0°C (57°F)
Dewpoint: 12.0°C (54°F) [RH = 88%]
Pressure (altimeter): 30.05 inches Hg (1017.7 mb)
Winds: from the S (190 degrees) at 15 MPH (13 knots; 6.7 m/s)
gusting to 21 MPH (18 knots; 9.3 m/s)
Visibility: 5 miles ( 8 km)
Ceiling: 1600 feet AGL
Clouds: broken clouds at 1600 feet AGL
overcast cloud deck at 2500 feet AGL
Weather: BR  (mist)

METAR text: KHAF 052255Z AUTO 18009G14KT 9SM BKN018 OVC025 14/12 A3005 RMK AO2
Conditions at: KHAF (HALF MOON BAY , CA, US) observed 2255 UTC 05 December 2019
Temperature: 14.0°C (57°F)
Dewpoint: 12.0°C (54°F) [RH = 88%]
Pressure (altimeter): 30.05 inches Hg (1017.7 mb)
Winds: from the S (180 degrees) at 10 MPH (9 knots; 4.6 m/s)
gusting to 16 MPH (14 knots; 7.2 m/s)
Visibility: 9 miles (14 km)
Ceiling: 1800 feet AGL
Clouds: broken clouds at 1800 feet AGL
overcast cloud deck at 2500 feet AGL
Weather: automated observation with no human augmentation;
there may or may not be significant weather present at this time

METAR text: KHAF 052240Z AUTO 19013G19KT 4SM BR BKN023 OVC027 14/12 A3005 RMK AO2
Conditions at: KHAF (HALF MOON BAY , CA, US) observed 2240 UTC 05 December 2019
Temperature: 14.0°C (57°F)
Dewpoint: 12.0°C (54°F) [RH = 88%]
Pressure (altimeter): 30.05 inches Hg (1017.7 mb)
Winds: from the S (190 degrees) at 15 MPH (13 knots; 6.7 m/s)
gusting to 22 MPH (19 knots; 9.8 m/s)
Visibility: 4 miles ( 6 km)
Ceiling: 2300 feet AGL
Clouds: broken clouds at 2300 feet AGL
overcast cloud deck at 2700 feet AGL
Weather: BR  (mist)

METAR text: KHAF 052235Z AUTO 18014G19KT 5SM BR OVC023 14/12 A3005 RMK AO2
Conditions at: KHAF (HALF MOON BAY , CA, US) observed 2235 UTC 05 December 2019
Temperature: 14.0°C (57°F)
Dewpoint: 12.0°C (54°F) [RH = 88%]
Pressure (altimeter): 30.05 inches Hg (1017.7 mb)
Winds: from the S (180 degrees) at 16 MPH (14 knots; 7.2 m/s)
gusting to 22 MPH (19 knots; 9.8 m/s)
Visibility: 5 miles ( 8 km)
Ceiling: 2300 feet AGL
Clouds: overcast cloud deck at 2300 feet AGL
Weather: BR  (mist)

METAR text: KHAF 052220Z AUTO 19011G18KT 9SM BKN023 OVC029 14/12 A3005 RMK AO2
Conditions at: KHAF (HALF MOON BAY , CA, US) observed 2220 UTC 05 December 2019
Temperature: 14.0°C (57°F)
Dewpoint: 12.0°C (54°F) [RH = 88%]
Pressure (altimeter): 30.05 inches Hg (1017.7 mb)
Winds: from the S (190 degrees) at 13 MPH (11 knots; 5.7 m/s)
gusting to 21 MPH (18 knots; 9.3 m/s)
Visibility: 9 miles (14 km)
Ceiling: 2300 feet AGL
Clouds: broken clouds at 2300 feet AGL
overcast cloud deck at 2900 feet AGL
Weather: automated observation with no human augmentation;
there may or may not be significant weather present at this time

METAR text: KHAF 052215Z AUTO 18011G18KT 10SM BKN025 OVC031 14/12 A3004 RMK AO2
Conditions at: KHAF (HALF MOON BAY , CA, US) observed 2215 UTC 05 December 2019
Temperature: 14.0°C (57°F)
Dewpoint: 12.0°C (54°F) [RH = 88%]
Pressure (altimeter): 30.04 inches Hg (1017.4 mb)
Winds: from the S (180 degrees) at 13 MPH (11 knots; 5.7 m/s)
gusting to 21 MPH (18 knots; 9.3 m/s)
Visibility: 10 or more miles (16+ km)
Ceiling: 2500 feet AGL
Clouds: broken clouds at 2500 feet AGL
overcast cloud deck at 3100 feet AGL
Weather: automated observation with no human augmentation;
there may or may not be significant weather present at this time

METAR text: KHAF 052200Z AUTO 18014G22KT 10SM BKN031 OVC037 15/12 A3004 RMK AO2
Conditions at: KHAF (HALF MOON BAY , CA, US) observed 2200 UTC 05 December 2019
Temperature: 15.0°C (59°F)
Dewpoint: 12.0°C (54°F) [RH = 82%]
Pressure (altimeter): 30.04 inches Hg (1017.4 mb)
Winds: from the S (180 degrees) at 16 MPH (14 knots; 7.2 m/s)
gusting to 25 MPH (22 knots; 11.3 m/s)
Visibility: 10 or more miles (16+ km)
Ceiling: 3100 feet AGL
Clouds: broken clouds at 3100 feet AGL
overcast cloud deck at 3700 feet AGL
Weather: automated observation with no human augmentation;
there may or may not be significant weather present at this time

METAR text: KHAF 052155Z AUTO 18014G22KT 10SM BKN031 OVC038 15/12 A3004 RMK AO2
Conditions at: KHAF (HALF MOON BAY , CA, US) observed 2155 UTC 05 December 2019
Temperature: 15.0°C (59°F)
Dewpoint: 12.0°C (54°F) [RH = 82%]
Pressure (altimeter): 30.04 inches Hg (1017.4 mb)
Winds: from the S (180 degrees) at 16 MPH (14 knots; 7.2 m/s)
gusting to 25 MPH (22 knots; 11.3 m/s)
Visibility: 10 or more miles (16+ km)
Ceiling: 3100 feet AGL
Clouds: broken clouds at 3100 feet AGL
overcast cloud deck at 3800 feet AGL
Weather: automated observation with no human augmentation;
there may or may not be significant weather present at this time

METAR text: KHAF 052140Z AUTO 19017G24KT 10SM OVC035 15/12 A3004 RMK AO2
Conditions at: KHAF (HALF MOON BAY , CA, US) observed 2140 UTC 05 December 2019
Temperature: 15.0°C (59°F)
Dewpoint: 12.0°C (54°F) [RH = 82%]
Pressure (altimeter): 30.04 inches Hg (1017.4 mb)
Winds: from the S (190 degrees) at 20 MPH (17 knots; 8.7 m/s)
gusting to 28 MPH (24 knots; 12.3 m/s)
Visibility: 10 or more miles (16+ km)
Ceiling: 3500 feet AGL
Clouds: overcast cloud deck at 3500 feet AGL
Weather: automated observation with no human augmentation;
there may or may not be significant weather present at this time

METAR text: KHAF 052135Z AUTO 20017G24KT 9SM OVC033 15/12 A3004 RMK AO2
Conditions at: KHAF (HALF MOON BAY , CA, US) observed 2135 UTC 05 December 2019
Temperature: 15.0°C (59°F)
Dewpoint: 12.0°C (54°F) [RH = 82%]
Pressure (altimeter): 30.04 inches Hg (1017.4 mb)
Winds: from the SSW (200 degrees) at 20 MPH (17 knots; 8.7 m/s)
gusting to 28 MPH (24 knots; 12.3 m/s)
Visibility: 9 miles (14 km)
Ceiling: 3300 feet AGL
Clouds: overcast cloud deck at 3300 feet AGL
Weather: automated observation with no human augmentation;
there may or may not be significant weather present at this time

METAR text: KHAF 052115Z AUTO 20018G24KT 10SM BKN033 OVC041 15/11 A3004 RMK AO2
Conditions at: KHAF (HALF MOON BAY , CA, US) observed 2115 UTC 05 December 2019
Temperature: 15.0°C (59°F)
Dewpoint: 11.0°C (52°F) [RH = 77%]
Pressure (altimeter): 30.04 inches Hg (1017.4 mb)
Winds: from the SSW (200 degrees) at 21 MPH (18 knots; 9.3 m/s)
gusting to 28 MPH (24 knots; 12.3 m/s)
Visibility: 10 or more miles (16+ km)
Ceiling: 3300 feet AGL
Clouds: broken clouds at 3300 feet AGL
overcast cloud deck at 4100 feet AGL
Weather: automated observation with no human augmentation;
there may or may not be significant weather present at this time

METAR text: KHAF 052100Z AUTO 19015G21KT 10SM SCT029 BKN034 OVC042 15/12 A3004 RMK AO2
Conditions at: KHAF (HALF MOON BAY , CA, US) observed 2100 UTC 05 December 2019
Temperature: 15.0°C (59°F)
Dewpoint: 12.0°C (54°F) [RH = 82%]
Pressure (altimeter): 30.04 inches Hg (1017.4 mb)
Winds: from the S (190 degrees) at 17 MPH (15 knots; 7.7 m/s)
gusting to 24 MPH (21 knots; 10.8 m/s)
Visibility: 10 or more miles (16+ km)
Ceiling: 3400 feet AGL
Clouds: scattered clouds at 2900 feet AGL
broken clouds at 3400 feet AGL
overcast cloud deck at 4200 feet AGL
Weather: automated observation with no human augmentation;
there may or may not be significant weather present at this time

METAR text: KHAF 052055Z AUTO 19015G21KT 10SM BKN029 OVC034 15/12 A3005 RMK AO2
Conditions at: KHAF (HALF MOON BAY , CA, US) observed 2055 UTC 05 December 2019
Temperature: 15.0°C (59°F)
Dewpoint: 12.0°C (54°F) [RH = 82%]
Pressure (altimeter): 30.05 inches Hg (1017.7 mb)
Winds: from the S (190 degrees) at 17 MPH (15 knots; 7.7 m/s)
gusting to 24 MPH (21 knots; 10.8 m/s)
Visibility: 10 or more miles (16+ km)
Ceiling: 2900 feet AGL
Clouds: broken clouds at 2900 feet AGL
overcast cloud deck at 3400 feet AGL
Weather: automated observation with no human augmentation;
there may or may not be significant weather present at this time

METAR text: KHAF 052040Z AUTO 18010G16KT 10SM OVC029 16/12 A3005 RMK AO2
Conditions at: KHAF (HALF MOON BAY , CA, US) observed 2040 UTC 05 December 2019
Temperature: 16.0°C (61°F)
Dewpoint: 12.0°C (54°F) [RH = 77%]
Pressure (altimeter): 30.05 inches Hg (1017.7 mb)
Winds: from the S (180 degrees) at 12 MPH (10 knots; 5.1 m/s)
gusting to 18 MPH (16 knots; 8.2 m/s)
Visibility: 10 or more miles (16+ km)
Ceiling: 2900 feet AGL
Clouds: overcast cloud deck at 2900 feet AGL
Weather: automated observation with no human augmentation;
there may or may not be significant weather present at this time

METAR text: KHAF 052035Z AUTO 17012KT 10SM OVC029 16/12 A3005 RMK AO2
Conditions at: KHAF (HALF MOON BAY , CA, US) observed 2035 UTC 05 December 2019
Temperature: 16.0°C (61°F)
Dewpoint: 12.0°C (54°F) [RH = 77%]
Pressure (altimeter): 30.05 inches Hg (1017.7 mb)
Winds: from the S (170 degrees) at 14 MPH (12 knots; 6.2 m/s)
Visibility: 10 or more miles (16+ km)
Ceiling: 2900 feet AGL
Clouds: overcast cloud deck at 2900 feet AGL
Weather: automated observation with no human augmentation;
there may or may not be significant weather present at this time

METAR text: KHAF 052020Z AUTO 17010KT 10SM BKN027 OVC033 15/12 A3006 RMK AO2
Conditions at: KHAF (HALF MOON BAY , CA, US) observed 2020 UTC 05 December 2019
Temperature: 15.0°C (59°F)
Dewpoint: 12.0°C (54°F) [RH = 82%]
Pressure (altimeter): 30.06 inches Hg (1018.0 mb)
Winds: from the S (170 degrees) at 12 MPH (10 knots; 5.1 m/s)
Visibility: 10 or more miles (16+ km)
Ceiling: 2700 feet AGL
Clouds: broken clouds at 2700 feet AGL
overcast cloud deck at 3300 feet AGL
Weather: automated observation with no human augmentation;
there may or may not be significant weather present at this time

METAR text: KHAF 052015Z AUTO 17010G16KT 10SM OVC030 15/12 A3006 RMK AO2
Conditions at: KHAF (HALF MOON BAY , CA, US) observed 2015 UTC 05 December 2019
Temperature: 15.0°C (59°F)
Dewpoint: 12.0°C (54°F) [RH = 82%]
Pressure (altimeter): 30.06 inches Hg (1018.0 mb)
Winds: from the S (170 degrees) at 12 MPH (10 knots; 5.1 m/s)
gusting to 18 MPH (16 knots; 8.2 m/s)
Visibility: 10 or more miles (16+ km)
Ceiling: 3000 feet AGL
Clouds: overcast cloud deck at 3000 feet AGL
Weather: automated observation with no human augmentation;
there may or may not be significant weather present at this time

METAR text: KHAF 052000Z AUTO 16008KT 9SM BKN024 OVC028 15/12 A3007 RMK AO2
Conditions at: KHAF (HALF MOON BAY , CA, US) observed 2000 UTC 05 December 2019
Temperature: 15.0°C (59°F)
Dewpoint: 12.0°C (54°F) [RH = 82%]
Pressure (altimeter): 30.07 inches Hg (1018.4 mb)
Winds: from the SSE (160 degrees) at 9 MPH (8 knots; 4.1 m/s)
Visibility: 9 miles (14 km)
Ceiling: 2400 feet AGL
Clouds: broken clouds at 2400 feet AGL
overcast cloud deck at 2800 feet AGL
Weather: automated observation with no human augmentation;
there may or may not be significant weather present at this time

METAR text: KHAF 051955Z AUTO 19008KT 9SM OVC024 15/12 A3007 RMK AO2
Conditions at: KHAF (HALF MOON BAY , CA, US) observed 1955 UTC 05 December 2019
Temperature: 15.0°C (59°F)
Dewpoint: 12.0°C (54°F) [RH = 82%]
Pressure (altimeter): 30.07 inches Hg (1018.4 mb)
Winds: from the S (190 degrees) at 9 MPH (8 knots; 4.1 m/s)
Visibility: 9 miles (14 km)
Ceiling: 2400 feet AGL
Clouds: overcast cloud deck at 2400 feet AGL
Weather: automated observation with no human augmentation;
there may or may not be significant weather present at this time

METAR text: KHAF 051940Z AUTO 19006KT 10SM OVC024 15/12 A3007 RMK AO2
Conditions at: KHAF (HALF MOON BAY , CA, US) observed 1940 UTC 05 December 2019
Temperature: 15.0°C (59°F)
Dewpoint: 12.0°C (54°F) [RH = 82%]
Pressure (altimeter): 30.07 inches Hg (1018.4 mb)
Winds: from the S (190 degrees) at 7 MPH (6 knots; 3.1 m/s)
Visibility: 10 or more miles (16+ km)
Ceiling: 2400 feet AGL
Clouds: overcast cloud deck at 2400 feet AGL
Weather: automated observation with no human augmentation;
there may or may not be significant weather present at this time

METAR text: KHAF 051935Z AUTO 16006KT 10SM OVC026 15/12 A3007 RMK AO2
Conditions at: KHAF (HALF MOON BAY , CA, US) observed 1935 UTC 05 December 2019
Temperature: 15.0°C (59°F)
Dewpoint: 12.0°C (54°F) [RH = 82%]
Pressure (altimeter): 30.07 inches Hg (1018.4 mb)
Winds: from the SSE (160 degrees) at 7 MPH (6 knots; 3.1 m/s)
Visibility: 10 or more miles (16+ km)
Ceiling: 2600 feet AGL
Clouds: overcast cloud deck at 2600 feet AGL
Weather: automated observation with no human augmentation;
there may or may not be significant weather present at this time

METAR text: KHAF 051915Z AUTO 15007KT 10SM OVC026 15/12 A3008 RMK AO2
Conditions at: KHAF (HALF MOON BAY , CA, US) observed 1915 UTC 05 December 2019
Temperature: 15.0°C (59°F)
Dewpoint: 12.0°C (54°F) [RH = 82%]
Pressure (altimeter): 30.08 inches Hg (1018.7 mb)
Winds: from the SSE (150 degrees) at 8 MPH (7 knots; 3.6 m/s)
Visibility: 10 or more miles (16+ km)
Ceiling: 2600 feet AGL
Clouds: overcast cloud deck at 2600 feet AGL
Weather: automated observation with no human augmentation;
there may or may not be significant weather present at this time

METAR text: KHAF 051900Z AUTO 14007KT 10SM OVC024 15/12 A3008 RMK AO2
Conditions at: KHAF (HALF MOON BAY , CA, US) observed 1900 UTC 05 December 2019
Temperature: 15.0°C (59°F)
Dewpoint: 12.0°C (54°F) [RH = 82%]
Pressure (altimeter): 30.08 inches Hg (1018.7 mb)
Winds: from the SE (140 degrees) at 8 MPH (7 knots; 3.6 m/s)
Visibility: 10 or more miles (16+ km)
Ceiling: 2400 feet AGL
Clouds: overcast cloud deck at 2400 feet AGL
Weather: automated observation with no human augmentation;
there may or may not be significant weather present at this time

METAR text: KHAF 051855Z AUTO 15008KT 10SM OVC024 15/12 A3008 RMK AO2
Conditions at: KHAF (HALF MOON BAY , CA, US) observed 1855 UTC 05 December 2019
Temperature: 15.0°C (59°F)
Dewpoint: 12.0°C (54°F) [RH = 82%]
Pressure (altimeter): 30.08 inches Hg (1018.7 mb)
Winds: from the SSE (150 degrees) at 9 MPH (8 knots; 4.1 m/s)
Visibility: 10 or more miles (16+ km)
Ceiling: 2400 feet AGL
Clouds: overcast cloud deck at 2400 feet AGL
Weather: automated observation with no human augmentation;
there may or may not be significant weather present at this time

METAR text: KHAF 051840Z AUTO 14008KT 10SM OVC024 15/12 A3008 RMK AO2
Conditions at: KHAF (HALF MOON BAY , CA, US) observed 1840 UTC 05 December 2019
Temperature: 15.0°C (59°F)
Dewpoint: 12.0°C (54°F) [RH = 82%]
Pressure (altimeter): 30.08 inches Hg (1018.7 mb)
Winds: from the SE (140 degrees) at 9 MPH (8 knots; 4.1 m/s)
Visibility: 10 or more miles (16+ km)
Ceiling: 2400 feet AGL
Clouds: overcast cloud deck at 2400 feet AGL
Weather: automated observation with no human augmentation;
there may or may not be significant weather present at this time

METAR text: KHAF 051835Z AUTO 14009KT 10SM OVC024 15/12 A3008 RMK AO2
Conditions at: KHAF (HALF MOON BAY , CA, US) observed 1835 UTC 05 December 2019
Temperature: 15.0°C (59°F)
Dewpoint: 12.0°C (54°F) [RH = 82%]
Pressure (altimeter): 30.08 inches Hg (1018.7 mb)
Winds: from the SE (140 degrees) at 10 MPH (9 knots; 4.6 m/s)
Visibility: 10 or more miles (16+ km)
Ceiling: 2400 feet AGL
Clouds: overcast cloud deck at 2400 feet AGL
Weather: automated observation with no human augmentation;
there may or may not be significant weather present at this time

METAR text: KHAF 051820Z AUTO 14008KT 10SM OVC024 15/12 A3008 RMK AO2
Conditions at: KHAF (HALF MOON BAY , CA, US) observed 1820 UTC 05 December 2019
Temperature: 15.0°C (59°F)
Dewpoint: 12.0°C (54°F) [RH = 82%]
Pressure (altimeter): 30.08 inches Hg (1018.7 mb)
Winds: from the SE (140 degrees) at 9 MPH (8 knots; 4.1 m/s)
Visibility: 10 or more miles (16+ km)
Ceiling: 2400 feet AGL
Clouds: overcast cloud deck at 2400 feet AGL
Weather: automated observation with no human augmentation;
there may or may not be significant weather present at this time

METAR text: KHAF 051815Z AUTO 16009KT 10SM OVC024 15/12 A3008 RMK AO2
Conditions at: KHAF (HALF MOON BAY , CA, US) observed 1815 UTC 05 December 2019
Temperature: 15.0°C (59°F)
Dewpoint: 12.0°C (54°F) [RH = 82%]
Pressure (altimeter): 30.08 inches Hg (1018.7 mb)
Winds: from the SSE (160 degrees) at 10 MPH (9 knots; 4.6 m/s)
Visibility: 10 or more miles (16+ km)
Ceiling: 2400 feet AGL
Clouds: overcast cloud deck at 2400 feet AGL
Weather: automated observation with no human augmentation;
there may or may not be significant weather present at this time

METAR text: KHAF 051800Z AUTO 15008KT 10SM OVC024 15/12 A3008 RMK AO2
Conditions at: KHAF (HALF MOON BAY , CA, US) observed 1800 UTC 05 December 2019
Temperature: 15.0°C (59°F)
Dewpoint: 12.0°C (54°F) [RH = 82%]
Pressure (altimeter): 30.08 inches Hg (1018.7 mb)
Winds: from the SSE (150 degrees) at 9 MPH (8 knots; 4.1 m/s)
Visibility: 10 or more miles (16+ km)
Ceiling: 2400 feet AGL
Clouds: overcast cloud deck at 2400 feet AGL
Weather: automated observation with no human augmentation;
there may or may not be significant weather present at this time

METAR text: KHAF 051755Z AUTO 15008KT 10SM OVC024 15/12 A3008 RMK AO2
Conditions at: KHAF (HALF MOON BAY , CA, US) observed 1755 UTC 05 December 2019
Temperature: 15.0°C (59°F)
Dewpoint: 12.0°C (54°F) [RH = 82%]
Pressure (altimeter): 30.08 inches Hg (1018.7 mb)
Winds: from the SSE (150 degrees) at 9 MPH (8 knots; 4.1 m/s)
Visibility: 10 or more miles (16+ km)
Ceiling: 2400 feet AGL
Clouds: overcast cloud deck at 2400 feet AGL
Weather: automated observation with no human augmentation;
there may or may not be significant weather present at this time

METAR text: KHAF 051735Z AUTO 14009KT 10SM OVC024 14/12 A3008 RMK AO2
Conditions at: KHAF (HALF MOON BAY , CA, US) observed 1735 UTC 05 December 2019
Temperature: 14.0°C (57°F)
Dewpoint: 12.0°C (54°F) [RH = 88%]
Pressure (altimeter): 30.08 inches Hg (1018.7 mb)
Winds: from the SE (140 degrees) at 10 MPH (9 knots; 4.6 m/s)
Visibility: 10 or more miles (16+ km)
Ceiling: 2400 feet AGL
Clouds: overcast cloud deck at 2400 feet AGL
Weather: automated observation with no human augmentation;
there may or may not be significant weather present at this time

METAR text: KHAF 051720Z AUTO 14008KT 10SM A3007 RMK AO2
Conditions at: KHAF (HALF MOON BAY , CA, US) observed 1720 UTC 05 December 2019
Temperature: missing
Dewpoint: missing
Pressure (altimeter): 30.07 inches Hg (1018.4 mb)
Winds: from the SE (140 degrees) at 9 MPH (8 knots; 4.1 m/s)
Visibility: 10 or more miles (16+ km)
Ceiling: unknown
Clouds: missing
Weather: automated observation with no human augmentation;
there may or may not be significant weather present at this time

METAR text: KHAF 051715Z AUTO 14008KT 10SM SCT019 OVC024 14/12 A3007 RMK AO2
Conditions at: KHAF (HALF MOON BAY , CA, US) observed 1715 UTC 05 December 2019
Temperature: 14.0°C (57°F)
Dewpoint: 12.0°C (54°F) [RH = 88%]
Pressure (altimeter): 30.07 inches Hg (1018.4 mb)
Winds: from the SE (140 degrees) at 9 MPH (8 knots; 4.1 m/s)
Visibility: 10 or more miles (16+ km)
Ceiling: 2400 feet AGL
Clouds: scattered clouds at 1900 feet AGL
overcast cloud deck at 2400 feet AGL
Weather: automated observation with no human augmentation;
there may or may not be significant weather present at this time

METAR text: KHAF 051700Z AUTO 14009KT 9SM OVC019 14/11 A3007 RMK AO2
Conditions at: KHAF (HALF MOON BAY , CA, US) observed 1700 UTC 05 December 2019
Temperature: 14.0°C (57°F)
Dewpoint: 11.0°C (52°F) [RH = 82%]
Pressure (altimeter): 30.07 inches Hg (1018.4 mb)
Winds: from the SE (140 degrees) at 10 MPH (9 knots; 4.6 m/s)
Visibility: 9 miles (14 km)
Ceiling: 1900 feet AGL
Clouds: overcast cloud deck at 1900 feet AGL
Weather: automated observation with no human augmentation;
there may or may not be significant weather present at this time

METAR text: KHAF 051655Z AUTO 14009KT 10SM OVC019 14/11 A3007 RMK AO2
Conditions at: KHAF (HALF MOON BAY , CA, US) observed 1655 UTC 05 December 2019
Temperature: 14.0°C (57°F)
Dewpoint: 11.0°C (52°F) [RH = 82%]
Pressure (altimeter): 30.07 inches Hg (1018.4 mb)
Winds: from the SE (140 degrees) at 10 MPH (9 knots; 4.6 m/s)
Visibility: 10 or more miles (16+ km)
Ceiling: 1900 feet AGL
Clouds: overcast cloud deck at 1900 feet AGL
Weather: automated observation with no human augmentation;
there may or may not be significant weather present at this time

METAR text: KHAF 051640Z AUTO 13006KT 9SM OVC019 12/11 A3007 RMK AO2
Conditions at: KHAF (HALF MOON BAY , CA, US) observed 1640 UTC 05 December 2019
Temperature: 12.0°C (54°F)
Dewpoint: 11.0°C (52°F) [RH = 94%]
Pressure (altimeter): 30.07 inches Hg (1018.4 mb)
Winds: from the SE (130 degrees) at 7 MPH (6 knots; 3.1 m/s)
Visibility: 9 miles (14 km)
Ceiling: 1900 feet AGL
Clouds: overcast cloud deck at 1900 feet AGL
Weather: automated observation with no human augmentation;
there may or may not be significant weather present at this time

METAR text: KHAF 051635Z AUTO 00000KT 7SM OVC021 12/10 A3007 RMK AO2
Conditions at: KHAF (HALF MOON BAY , CA, US) observed 1635 UTC 05 December 2019
Temperature: 12.0°C (54°F)
Dewpoint: 10.0°C (50°F) [RH = 88%]
Pressure (altimeter): 30.07 inches Hg (1018.4 mb)
Winds: calm
Visibility: 7 miles (11 km)
Ceiling: 2100 feet AGL
Clouds: overcast cloud deck at 2100 feet AGL
Weather: automated observation with no human augmentation;
there may or may not be significant weather present at this time

METAR text: KHAF 051620Z AUTO 00000KT 7SM OVC021 11/10 A3007 RMK AO2
Conditions at: KHAF (HALF MOON BAY , CA, US) observed 1620 UTC 05 December 2019
Temperature: 11.0°C (52°F)
Dewpoint: 10.0°C (50°F) [RH = 94%]
Pressure (altimeter): 30.07 inches Hg (1018.4 mb)
Winds: calm
Visibility: 7 miles (11 km)
Ceiling: 2100 feet AGL
Clouds: overcast cloud deck at 2100 feet AGL
Weather: automated observation with no human augmentation;
there may or may not be significant weather present at this time

METAR text: KHAF 051615Z AUTO 10003KT 7SM BKN021 10/10 A3007 RMK AO2
Conditions at: KHAF (HALF MOON BAY , CA, US) observed 1615 UTC 05 December 2019
Temperature: 10.0°C (50°F)
Dewpoint: 10.0°C (50°F) [RH = 100%]
Pressure (altimeter): 30.07 inches Hg (1018.4 mb)
Winds: from the E (100 degrees) at 3 MPH (3 knots; 1.5 m/s)
Visibility: 7 miles (11 km)
Ceiling: 2100 feet AGL
Clouds: broken clouds at 2100 feet AGL
Weather: automated observation with no human augmentation;
there may or may not be significant weather present at this time

METAR text: KHAF 051555Z AUTO 00000KT 10SM FEW025 09/08 A3007 RMK AO2
Conditions at: KHAF (HALF MOON BAY , CA, US) observed 1555 UTC 05 December 2019
Temperature: 9.0°C (48°F)
Dewpoint: 8.0°C (46°F) [RH = 93%]
Pressure (altimeter): 30.07 inches Hg (1018.4 mb)
Winds: calm
Visibility: 10 or more miles (16+ km)
Ceiling: at least 12,000 feet AGL
Clouds: few clouds at 2500 feet AGL
Weather: automated observation with no human augmentation;
there may or may not be significant weather present at this time

METAR text: KHAF 051540Z AUTO 00000KT 10SM CLR 09/09 A3006 RMK AO2
Conditions at: KHAF (HALF MOON BAY , CA, US) observed 1540 UTC 05 December 2019
Temperature: 9.0°C (48°F)
Dewpoint: 9.0°C (48°F) [RH = 100%]
Pressure (altimeter): 30.06 inches Hg (1018.0 mb)
Winds: calm
Visibility: 10 or more miles (16+ km)
Ceiling: at least 12,000 feet AGL
Clouds: sky clear below 12,000 feet AGL
Weather: automated observation with no human augmentation;
there may or may not be significant weather present at this time

METAR text: KHAF 051535Z AUTO 00000KT 10SM CLR 09/08 A3006 RMK AO2
Conditions at: KHAF (HALF MOON BAY , CA, US) observed 1535 UTC 05 December 2019
Temperature: 9.0°C (48°F)
Dewpoint: 8.0°C (46°F) [RH = 93%]
Pressure (altimeter): 30.06 inches Hg (1018.0 mb)
Winds: calm
Visibility: 10 or more miles (16+ km)
Ceiling: at least 12,000 feet AGL
Clouds: sky clear below 12,000 feet AGL
Weather: automated observation with no human augmentation;
there may or may not be significant weather present at this time

METAR text: KHAF 051520Z AUTO 00000KT 10SM FEW048 09/08 A3005 RMK AO2
Conditions at: KHAF (HALF MOON BAY , CA, US) observed 1520 UTC 05 December 2019
Temperature: 9.0°C (48°F)
Dewpoint: 8.0°C (46°F) [RH = 93%]
Pressure (altimeter): 30.05 inches Hg (1017.7 mb)
Winds: calm
Visibility: 10 or more miles (16+ km)
Ceiling: at least 12,000 feet AGL
Clouds: few clouds at 4800 feet AGL
Weather: automated observation with no human augmentation;
there may or may not be significant weather present at this time

METAR text: KHAF 051515Z AUTO 00000KT 10SM FEW048 08/08 A3005 RMK AO2
Conditions at: KHAF (HALF MOON BAY , CA, US) observed 1515 UTC 05 December 2019
Temperature: 8.0°C (46°F)
Dewpoint: 8.0°C (46°F) [RH = 100%]
Pressure (altimeter): 30.05 inches Hg (1017.7 mb)
Winds: calm
Visibility: 10 or more miles (16+ km)
Ceiling: at least 12,000 feet AGL
Clouds: few clouds at 4800 feet AGL
Weather: automated observation with no human augmentation;
there may or may not be significant weather present at this time

METAR text: KHAF 051500Z AUTO 00000KT 10SM SCT048 08/07 A3005 RMK AO2
Conditions at: KHAF (HALF MOON BAY , CA, US) observed 1500 UTC 05 December 2019
Temperature: 8.0°C (46°F)
Dewpoint: 7.0°C (45°F) [RH = 93%]
Pressure (altimeter): 30.05 inches Hg (1017.7 mb)
Winds: calm
Visibility: 10 or more miles (16+ km)
Ceiling: at least 12,000 feet AGL
Clouds: scattered clouds at 4800 feet AGL
Weather: automated observation with no human augmentation;
there may or may not be significant weather present at this time

METAR text: KHAF 051455Z AUTO 00000KT 10SM SCT048 08/08 A3004 RMK AO2
Conditions at: KHAF (HALF MOON BAY , CA, US) observed 1455 UTC 05 December 2019
Temperature: 8.0°C (46°F)
Dewpoint: 8.0°C (46°F) [RH = 100%]
Pressure (altimeter): 30.04 inches Hg (1017.4 mb)
Winds: calm
Visibility: 10 or more miles (16+ km)
Ceiling: at least 12,000 feet AGL
Clouds: scattered clouds at 4800 feet AGL
Weather: automated observation with no human augmentation;
there may or may not be significant weather present at this time

METAR text: KHAF 051440Z AUTO 00000KT 10SM CLR 08/07 A3003 RMK AO2
Conditions at: KHAF (HALF MOON BAY , CA, US) observed 1440 UTC 05 December 2019
Temperature: 8.0°C (46°F)
Dewpoint: 7.0°C (45°F) [RH = 93%]
Pressure (altimeter): 30.03 inches Hg (1017.0 mb)
Winds: calm
Visibility: 10 or more miles (16+ km)
Ceiling: at least 12,000 feet AGL
Clouds: sky clear below 12,000 feet AGL
Weather: automated observation with no human augmentation;
there may or may not be significant weather present at this time

METAR text: KHAF 051435Z AUTO 05003KT 10SM CLR 08/08 A3003 RMK AO2
Conditions at: KHAF (HALF MOON BAY , CA, US) observed 1435 UTC 05 December 2019
Temperature: 8.0°C (46°F)
Dewpoint: 8.0°C (46°F) [RH = 100%]
Pressure (altimeter): 30.03 inches Hg (1017.0 mb)
Winds: from the NE (50 degrees) at 3 MPH (3 knots; 1.5 m/s)
Visibility: 10 or more miles (16+ km)
Ceiling: at least 12,000 feet AGL
Clouds: sky clear below 12,000 feet AGL
Weather: automated observation with no human augmentation;
there may or may not be significant weather present at this time

METAR text: KHAF 051420Z AUTO 00000KT 10SM CLR 08/08 A3003 RMK AO2
Conditions at: KHAF (HALF MOON BAY , CA, US) observed 1420 UTC 05 December 2019
Temperature: 8.0°C (46°F)
Dewpoint: 8.0°C (46°F) [RH = 100%]
Pressure (altimeter): 30.03 inches Hg (1017.0 mb)
Winds: calm
Visibility: 10 or more miles (16+ km)
Ceiling: at least 12,000 feet AGL
Clouds: sky clear below 12,000 feet AGL
Weather: automated observation with no human augmentation;
there may or may not be significant weather present at this time

METAR text: KHAF 051415Z AUTO 00000KT 10SM CLR 08/07 A3003 RMK AO2
Conditions at: KHAF (HALF MOON BAY , CA, US) observed 1415 UTC 05 December 2019
Temperature: 8.0°C (46°F)
Dewpoint: 7.0°C (45°F) [RH = 93%]
Pressure (altimeter): 30.03 inches Hg (1017.0 mb)
Winds: calm
Visibility: 10 or more miles (16+ km)
Ceiling: at least 12,000 feet AGL
Clouds: sky clear below 12,000 feet AGL
Weather: automated observation with no human augmentation;
there may or may not be significant weather present at this time

METAR text: KHAF 051355Z AUTO 00000KT 10SM CLR 08/08 A3002 RMK AO2
Conditions at: KHAF (HALF MOON BAY , CA, US) observed 1355 UTC 05 December 2019
Temperature: 8.0°C (46°F)
Dewpoint: 8.0°C (46°F) [RH = 100%]
Pressure (altimeter): 30.02 inches Hg (1016.7 mb)
Winds: calm
Visibility: 10 or more miles (16+ km)
Ceiling: at least 12,000 feet AGL
Clouds: sky clear below 12,000 feet AGL
Weather: automated observation with no human augmentation;
there may or may not be significant weather present at this time

METAR text: KHAF 051340Z AUTO 00000KT 10SM CLR 08/07 A3002 RMK AO2
Conditions at: KHAF (HALF MOON BAY , CA, US) observed 1340 UTC 05 December 2019
Temperature: 8.0°C (46°F)
Dewpoint: 7.0°C (45°F) [RH = 93%]
Pressure (altimeter): 30.02 inches Hg (1016.7 mb)
Winds: calm
Visibility: 10 or more miles (16+ km)
Ceiling: at least 12,000 feet AGL
Clouds: sky clear below 12,000 feet AGL
Weather: automated observation with no human augmentation;
there may or may not be significant weather present at this time

METAR text: KHAF 051335Z AUTO 04003KT 10SM CLR 08/08 A3002 RMK AO2
Conditions at: KHAF (HALF MOON BAY , CA, US) observed 1335 UTC 05 December 2019
Temperature: 8.0°C (46°F)
Dewpoint: 8.0°C (46°F) [RH = 100%]
Pressure (altimeter): 30.02 inches Hg (1016.7 mb)
Winds: from the NE (40 degrees) at 3 MPH (3 knots; 1.5 m/s)
Visibility: 10 or more miles (16+ km)
Ceiling: at least 12,000 feet AGL
Clouds: sky clear below 12,000 feet AGL
Weather: automated observation with no human augmentation;
there may or may not be significant weather present at this time

METAR text: KHAF 051320Z AUTO 00000KT 10SM CLR 09/08 A3001 RMK AO2
Conditions at: KHAF (HALF MOON BAY , CA, US) observed 1320 UTC 05 December 2019
Temperature: 9.0°C (48°F)
Dewpoint: 8.0°C (46°F) [RH = 93%]
Pressure (altimeter): 30.01 inches Hg (1016.3 mb)
Winds: calm
Visibility: 10 or more miles (16+ km)
Ceiling: at least 12,000 feet AGL
Clouds: sky clear below 12,000 feet AGL
Weather: automated observation with no human augmentation;
there may or may not be significant weather present at this time

METAR text: KHAF 051315Z AUTO 00000KT 10SM CLR 08/08 A3001 RMK AO2
Conditions at: KHAF (HALF MOON BAY , CA, US) observed 1315 UTC 05 December 2019
Temperature: 8.0°C (46°F)
Dewpoint: 8.0°C (46°F) [RH = 100%]
Pressure (altimeter): 30.01 inches Hg (1016.3 mb)
Winds: calm
Visibility: 10 or more miles (16+ km)
Ceiling: at least 12,000 feet AGL
Clouds: sky clear below 12,000 feet AGL
Weather: automated observation with no human augmentation;
there may or may not be significant weather present at this time

METAR text: KHAF 051300Z AUTO 00000KT 10SM CLR 09/08 A3001 RMK AO2
Conditions at: KHAF (HALF MOON BAY , CA, US) observed 1300 UTC 05 December 2019
Temperature: 9.0°C (48°F)
Dewpoint: 8.0°C (46°F) [RH = 93%]
Pressure (altimeter): 30.01 inches Hg (1016.3 mb)
Winds: calm
Visibility: 10 or more miles (16+ km)
Ceiling: at least 12,000 feet AGL
Clouds: sky clear below 12,000 feet AGL
Weather: automated observation with no human augmentation;
there may or may not be significant weather present at this time

METAR text: KHAF 051255Z AUTO 00000KT 10SM CLR 08/08 A3000 RMK AO2
Conditions at: KHAF (HALF MOON BAY , CA, US) observed 1255 UTC 05 December 2019
Temperature: 8.0°C (46°F)
Dewpoint: 8.0°C (46°F) [RH = 100%]
Pressure (altimeter): 30.00 inches Hg (1016.0 mb)
Winds: calm
Visibility: 10 or more miles (16+ km)
Ceiling: at least 12,000 feet AGL
Clouds: sky clear below 12,000 feet AGL
Weather: automated observation with no human augmentation;
there may or may not be significant weather present at this time

METAR text: KHAF 051240Z AUTO 00000KT 10SM CLR 09/08 A3000 RMK AO2
Conditions at: KHAF (HALF MOON BAY , CA, US) observed 1240 UTC 05 December 2019
Temperature: 9.0°C (48°F)
Dewpoint: 8.0°C (46°F) [RH = 93%]
Pressure (altimeter): 30.00 inches Hg (1016.0 mb)
Winds: calm
Visibility: 10 or more miles (16+ km)
Ceiling: at least 12,000 feet AGL
Clouds: sky clear below 12,000 feet AGL
Weather: automated observation with no human augmentation;
there may or may not be significant weather present at this time

METAR text: KHAF 051235Z AUTO 00000KT 10SM CLR 10/09 A3000 RMK AO2
Conditions at: KHAF (HALF MOON BAY , CA, US) observed 1235 UTC 05 December 2019
Temperature: 10.0°C (50°F)
Dewpoint: 9.0°C (48°F) [RH = 93%]
Pressure (altimeter): 30.00 inches Hg (1016.0 mb)
Winds: calm
Visibility: 10 or more miles (16+ km)
Ceiling: at least 12,000 feet AGL
Clouds: sky clear below 12,000 feet AGL
Weather: automated observation with no human augmentation;
there may or may not be significant weather present at this time

METAR text: KHAF 051220Z AUTO 00000KT 10SM CLR 09/09 A3000 RMK AO2
Conditions at: KHAF (HALF MOON BAY , CA, US) observed 1220 UTC 05 December 2019
Temperature: 9.0°C (48°F)
Dewpoint: 9.0°C (48°F) [RH = 100%]
Pressure (altimeter): 30.00 inches Hg (1016.0 mb)
Winds: calm
Visibility: 10 or more miles (16+ km)
Ceiling: at least 12,000 feet AGL
Clouds: sky clear below 12,000 feet AGL
Weather: automated observation with no human augmentation;
there may or may not be significant weather present at this time

METAR text: KHAF 051215Z AUTO 00000KT 10SM FEW024 09/09 A3000 RMK AO2
Conditions at: KHAF (HALF MOON BAY , CA, US) observed 1215 UTC 05 December 2019
Temperature: 9.0°C (48°F)
Dewpoint: 9.0°C (48°F) [RH = 100%]
Pressure (altimeter): 30.00 inches Hg (1016.0 mb)
Winds: calm
Visibility: 10 or more miles (16+ km)
Ceiling: at least 12,000 feet AGL
Clouds: few clouds at 2400 feet AGL
Weather: automated observation with no human augmentation;
there may or may not be significant weather present at this time

METAR text: KHAF 051155Z AUTO 03003KT 10SM BKN024 09/09 A3000 RMK AO2
Conditions at: KHAF (HALF MOON BAY , CA, US) observed 1155 UTC 05 December 2019
Temperature: 9.0°C (48°F)
Dewpoint: 9.0°C (48°F) [RH = 100%]
Pressure (altimeter): 30.00 inches Hg (1016.0 mb)
Winds: from the NNE (30 degrees) at 3 MPH (3 knots; 1.5 m/s)
Visibility: 10 or more miles (16+ km)
Ceiling: 2400 feet AGL
Clouds: broken clouds at 2400 feet AGL
Weather: automated observation with no human augmentation;
there may or may not be significant weather present at this time

METAR text: KHAF 051140Z AUTO 00000KT 7SM BKN022 10/09 A3000 RMK AO2
Conditions at: KHAF (HALF MOON BAY , CA, US) observed 1140 UTC 05 December 2019
Temperature: 10.0°C (50°F)
Dewpoint: 9.0°C (48°F) [RH = 93%]
Pressure (altimeter): 30.00 inches Hg (1016.0 mb)
Winds: calm
Visibility: 7 miles (11 km)
Ceiling: 2200 feet AGL
Clouds: broken clouds at 2200 feet AGL
Weather: automated observation with no human augmentation;
there may or may not be significant weather present at this time

METAR text: KHAF 051135Z AUTO 14003KT 7SM BKN022 10/09 A3000 RMK AO2
Conditions at: KHAF (HALF MOON BAY , CA, US) observed 1135 UTC 05 December 2019
Temperature: 10.0°C (50°F)
Dewpoint: 9.0°C (48°F) [RH = 93%]
Pressure (altimeter): 30.00 inches Hg (1016.0 mb)
Winds: from the SE (140 degrees) at 3 MPH (3 knots; 1.5 m/s)
Visibility: 7 miles (11 km)
Ceiling: 2200 feet AGL
Clouds: broken clouds at 2200 feet AGL
Weather: automated observation with no human augmentation;
there may or may not be significant weather present at this time

METAR text: KHAF 051120Z AUTO 00000KT 5SM BR BKN022 BKN031 10/09 A2999 RMK AO2
Conditions at: KHAF (HALF MOON BAY , CA, US) observed 1120 UTC 05 December 2019
Temperature: 10.0°C (50°F)
Dewpoint: 9.0°C (48°F) [RH = 93%]
Pressure (altimeter): 29.99 inches Hg (1015.7 mb)
Winds: calm
Visibility: 5 miles ( 8 km)
Ceiling: 2200 feet AGL
Clouds: broken clouds at 2200 feet AGL
broken clouds at 3100 feet AGL
Weather: BR  (mist)

METAR text: KHAF 051115Z AUTO 00000KT 5SM BR SCT022 BKN031 12/10 A2999 RMK AO2
Conditions at: KHAF (HALF MOON BAY , CA, US) observed 1115 UTC 05 December 2019
Temperature: 12.0°C (54°F)
Dewpoint: 10.0°C (50°F) [RH = 88%]
Pressure (altimeter): 29.99 inches Hg (1015.7 mb)
Winds: calm
Visibility: 5 miles ( 8 km)
Ceiling: 3100 feet AGL
Clouds: scattered clouds at 2200 feet AGL
broken clouds at 3100 feet AGL
Weather: BR  (mist)

METAR text: KHAF 051100Z AUTO 00000KT 6SM BR FEW022 OVC031 12/10 A2998 RMK AO2
Conditions at: KHAF (HALF MOON BAY , CA, US) observed 1100 UTC 05 December 2019
Temperature: 12.0°C (54°F)
Dewpoint: 10.0°C (50°F) [RH = 88%]
Pressure (altimeter): 29.98 inches Hg (1015.3 mb)
Winds: calm
Visibility: 6 miles (10 km)
Ceiling: 3100 feet AGL
Clouds: few clouds at 2200 feet AGL
overcast cloud deck at 3100 feet AGL
Weather: BR  (mist)

METAR text: KHAF 051055Z AUTO 00000KT 7SM OVC031 12/10 A2998 RMK AO2
Conditions at: KHAF (HALF MOON BAY , CA, US) observed 1055 UTC 05 December 2019
Temperature: 12.0°C (54°F)
Dewpoint: 10.0°C (50°F) [RH = 88%]
Pressure (altimeter): 29.98 inches Hg (1015.3 mb)
Winds: calm
Visibility: 7 miles (11 km)
Ceiling: 3100 feet AGL
Clouds: overcast cloud deck at 3100 feet AGL
Weather: automated observation with no human augmentation;
there may or may not be significant weather present at this time

METAR text: KHAF 051040Z AUTO 00000KT 7SM OVC031 12/10 A2999 RMK AO2
Conditions at: KHAF (HALF MOON BAY , CA, US) observed 1040 UTC 05 December 2019
Temperature: 12.0°C (54°F)
Dewpoint: 10.0°C (50°F) [RH = 88%]
Pressure (altimeter): 29.99 inches Hg (1015.7 mb)
Winds: calm
Visibility: 7 miles (11 km)
Ceiling: 3100 feet AGL
Clouds: overcast cloud deck at 3100 feet AGL
Weather: automated observation with no human augmentation;
there may or may not be significant weather present at this time

METAR text: KHAF 051035Z AUTO 00000KT 7SM OVC031 12/11 A2999 RMK AO2
Conditions at: KHAF (HALF MOON BAY , CA, US) observed 1035 UTC 05 December 2019
Temperature: 12.0°C (54°F)
Dewpoint: 11.0°C (52°F) [RH = 94%]
Pressure (altimeter): 29.99 inches Hg (1015.7 mb)
Winds: calm
Visibility: 7 miles (11 km)
Ceiling: 3100 feet AGL
Clouds: overcast cloud deck at 3100 feet AGL
Weather: automated observation with no human augmentation;
there may or may not be significant weather present at this time

METAR text: KHAF 051020Z AUTO 00000KT 5SM BR OVC031 12/11 A2999 RMK AO2
Conditions at: KHAF (HALF MOON BAY , CA, US) observed 1020 UTC 05 December 2019
Temperature: 12.0°C (54°F)
Dewpoint: 11.0°C (52°F) [RH = 94%]
Pressure (altimeter): 29.99 inches Hg (1015.7 mb)
Winds: calm
Visibility: 5 miles ( 8 km)
Ceiling: 3100 feet AGL
Clouds: overcast cloud deck at 3100 feet AGL
Weather: BR  (mist)

METAR text: KHAF 051015Z AUTO 00000KT 5SM BR OVC031 12/11 A2999 RMK AO2
Conditions at: KHAF (HALF MOON BAY , CA, US) observed 1015 UTC 05 December 2019
Temperature: 12.0°C (54°F)
Dewpoint: 11.0°C (52°F) [RH = 94%]
Pressure (altimeter): 29.99 inches Hg (1015.7 mb)
Winds: calm
Visibility: 5 miles ( 8 km)
Ceiling: 3100 feet AGL
Clouds: overcast cloud deck at 3100 feet AGL
Weather: BR  (mist)

METAR text: KHAF 051000Z AUTO 00000KT 3SM BR BKN031 12/11 A2998 RMK AO2
Conditions at: KHAF (HALF MOON BAY , CA, US) observed 1000 UTC 05 December 2019
Temperature: 12.0°C (54°F)
Dewpoint: 11.0°C (52°F) [RH = 94%]
Pressure (altimeter): 29.98 inches Hg (1015.3 mb)
Winds: calm
Visibility: 3 miles ( 5 km)
Ceiling: 3100 feet AGL
Clouds: broken clouds at 3100 feet AGL
Weather: BR  (mist)

METAR text: KHAF 050955Z AUTO 00000KT 3SM BR SCT031 12/11 A2998 RMK AO2
Conditions at: KHAF (HALF MOON BAY , CA, US) observed 0955 UTC 05 December 2019
Temperature: 12.0°C (54°F)
Dewpoint: 11.0°C (52°F) [RH = 94%]
Pressure (altimeter): 29.98 inches Hg (1015.3 mb)
Winds: calm
Visibility: 3 miles ( 5 km)
Ceiling: at least 12,000 feet AGL
Clouds: scattered clouds at 3100 feet AGL
Weather: BR  (mist)

METAR text: KHAF 050935Z AUTO 14003KT 5SM BR BKN037 12/12 A2998 RMK AO2
Conditions at: KHAF (HALF MOON BAY , CA, US) observed 0935 UTC 05 December 2019
Temperature: 12.0°C (54°F)
Dewpoint: 12.0°C (54°F) [RH = 100%]
Pressure (altimeter): 29.98 inches Hg (1015.3 mb)
Winds: from the SE (140 degrees) at 3 MPH (3 knots; 1.5 m/s)
Visibility: 5 miles ( 8 km)
Ceiling: 3700 feet AGL
Clouds: broken clouds at 3700 feet AGL
Weather: BR  (mist)

METAR text: KHAF 050920Z AUTO 00000KT 10SM OVC037 13/12 A2998 RMK AO2
Conditions at: KHAF (HALF MOON BAY , CA, US) observed 0920 UTC 05 December 2019
Temperature: 13.0°C (55°F)
Dewpoint: 12.0°C (54°F) [RH = 94%]
Pressure (altimeter): 29.98 inches Hg (1015.3 mb)
Winds: calm
Visibility: 10 or more miles (16+ km)
Ceiling: 3700 feet AGL
Clouds: overcast cloud deck at 3700 feet AGL
Weather: automated observation with no human augmentation;
there may or may not be significant weather present at this time

METAR text: KHAF 050915Z AUTO 00000KT 10SM OVC037 13/12 A2998 RMK AO2
Conditions at: KHAF (HALF MOON BAY , CA, US) observed 0915 UTC 05 December 2019
Temperature: 13.0°C (55°F)
Dewpoint: 12.0°C (54°F) [RH = 94%]
Pressure (altimeter): 29.98 inches Hg (1015.3 mb)
Winds: calm
Visibility: 10 or more miles (16+ km)
Ceiling: 3700 feet AGL
Clouds: overcast cloud deck at 3700 feet AGL
Weather: automated observation with no human augmentation;
there may or may not be significant weather present at this time

METAR text: KHAF 050900Z AUTO 00000KT 8SM OVC037 13/12 A2997 RMK AO2
Conditions at: KHAF (HALF MOON BAY , CA, US) observed 0900 UTC 05 December 2019
Temperature: 13.0°C (55°F)
Dewpoint: 12.0°C (54°F) [RH = 94%]
Pressure (altimeter): 29.97 inches Hg (1015.0 mb)
Winds: calm
Visibility: 8 miles (13 km)
Ceiling: 3700 feet AGL
Clouds: overcast cloud deck at 3700 feet AGL
Weather: automated observation with no human augmentation;
there may or may not be significant weather present at this time

METAR text: KHAF 050855Z AUTO 00000KT 7SM OVC037 13/12 A2998 RMK AO2
Conditions at: KHAF (HALF MOON BAY , CA, US) observed 0855 UTC 05 December 2019
Temperature: 13.0°C (55°F)
Dewpoint: 12.0°C (54°F) [RH = 94%]
Pressure (altimeter): 29.98 inches Hg (1015.3 mb)
Winds: calm
Visibility: 7 miles (11 km)
Ceiling: 3700 feet AGL
Clouds: overcast cloud deck at 3700 feet AGL
Weather: automated observation with no human augmentation;
there may or may not be significant weather present at this time

METAR text: KHAF 050840Z AUTO 00000KT 7SM OVC035 13/12 A2998 RMK AO2
Conditions at: KHAF (HALF MOON BAY , CA, US) observed 0840 UTC 05 December 2019
Temperature: 13.0°C (55°F)
Dewpoint: 12.0°C (54°F) [RH = 94%]
Pressure (altimeter): 29.98 inches Hg (1015.3 mb)
Winds: calm
Visibility: 7 miles (11 km)
Ceiling: 3500 feet AGL
Clouds: overcast cloud deck at 3500 feet AGL
Weather: automated observation with no human augmentation;
there may or may not be significant weather present at this time

METAR text: KHAF 050835Z AUTO 00000KT 8SM OVC035 13/12 A2998 RMK AO2
Conditions at: KHAF (HALF MOON BAY , CA, US) observed 0835 UTC 05 December 2019
Temperature: 13.0°C (55°F)
Dewpoint: 12.0°C (54°F) [RH = 94%]
Pressure (altimeter): 29.98 inches Hg (1015.3 mb)
Winds: calm
Visibility: 8 miles (13 km)
Ceiling: 3500 feet AGL
Clouds: overcast cloud deck at 3500 feet AGL
Weather: automated observation with no human augmentation;
there may or may not be significant weather present at this time

METAR text: KHAF 050820Z AUTO 00000KT 7SM OVC033 13/12 A2998 RMK AO2
Conditions at: KHAF (HALF MOON BAY , CA, US) observed 0820 UTC 05 December 2019
Temperature: 13.0°C (55°F)
Dewpoint: 12.0°C (54°F) [RH = 94%]
Pressure (altimeter): 29.98 inches Hg (1015.3 mb)
Winds: calm
Visibility: 7 miles (11 km)
Ceiling: 3300 feet AGL
Clouds: overcast cloud deck at 3300 feet AGL
Weather: automated observation with no human augmentation;
there may or may not be significant weather present at this time

METAR text: KHAF 050815Z AUTO 00000KT 6SM BR OVC033 13/12 A2998 RMK AO2
Conditions at: KHAF (HALF MOON BAY , CA, US) observed 0815 UTC 05 December 2019
Temperature: 13.0°C (55°F)
Dewpoint: 12.0°C (54°F) [RH = 94%]
Pressure (altimeter): 29.98 inches Hg (1015.3 mb)
Winds: calm
Visibility: 6 miles (10 km)
Ceiling: 3300 feet AGL
Clouds: overcast cloud deck at 3300 feet AGL
Weather: BR  (mist)

METAR text: KHAF 050800Z AUTO 00000KT 5SM BR FEW021 OVC033 13/12 A2998 RMK AO2
Conditions at: KHAF (HALF MOON BAY , CA, US) observed 0800 UTC 05 December 2019
Temperature: 13.0°C (55°F)
Dewpoint: 12.0°C (54°F) [RH = 94%]
Pressure (altimeter): 29.98 inches Hg (1015.3 mb)
Winds: calm
Visibility: 5 miles ( 8 km)
Ceiling: 3300 feet AGL
Clouds: few clouds at 2100 feet AGL
overcast cloud deck at 3300 feet AGL
Weather: BR  (mist)

METAR text: KHAF 050755Z AUTO 00000KT 5SM BR FEW021 OVC033 13/12 A2998 RMK AO2
Conditions at: KHAF (HALF MOON BAY , CA, US) observed 0755 UTC 05 December 2019
Temperature: 13.0°C (55°F)
Dewpoint: 12.0°C (54°F) [RH = 94%]
Pressure (altimeter): 29.98 inches Hg (1015.3 mb)
Winds: calm
Visibility: 5 miles ( 8 km)
Ceiling: 3300 feet AGL
Clouds: few clouds at 2100 feet AGL
overcast cloud deck at 3300 feet AGL
Weather: BR  (mist)

METAR text: KHAF 050735Z AUTO 00000KT 7SM OVC033 13/12 A2997 RMK AO2
Conditions at: KHAF (HALF MOON BAY , CA, US) observed 0735 UTC 05 December 2019
Temperature: 13.0°C (55°F)
Dewpoint: 12.0°C (54°F) [RH = 94%]
Pressure (altimeter): 29.97 inches Hg (1015.0 mb)
Winds: calm
Visibility: 7 miles (11 km)
Ceiling: 3300 feet AGL
Clouds: overcast cloud deck at 3300 feet AGL
Weather: automated observation with no human augmentation;
there may or may not be significant weather present at this time

METAR text: KHAF 050715Z AUTO 17003KT 7SM BKN020 OVC033 13/12 A2996 RMK AO2
Conditions at: KHAF (HALF MOON BAY , CA, US) observed 0715 UTC 05 December 2019
Temperature: 13.0°C (55°F)
Dewpoint: 12.0°C (54°F) [RH = 94%]
Pressure (altimeter): 29.96 inches Hg (1014.6 mb)
Winds: from the S (170 degrees) at 3 MPH (3 knots; 1.5 m/s)
Visibility: 7 miles (11 km)
Ceiling: 2000 feet AGL
Clouds: broken clouds at 2000 feet AGL
overcast cloud deck at 3300 feet AGL
Weather: automated observation with no human augmentation;
there may or may not be significant weather present at this time

METAR text: KHAF 050700Z AUTO 18003KT 9SM OVC020 13/12 A2996 RMK AO2
Conditions at: KHAF (HALF MOON BAY , CA, US) observed 0700 UTC 05 December 2019
Temperature: 13.0°C (55°F)
Dewpoint: 12.0°C (54°F) [RH = 94%]
Pressure (altimeter): 29.96 inches Hg (1014.6 mb)
Winds: from the S (180 degrees) at 3 MPH (3 knots; 1.5 m/s)
Visibility: 9 miles (14 km)
Ceiling: 2000 feet AGL
Clouds: overcast cloud deck at 2000 feet AGL
Weather: automated observation with no human augmentation;
there may or may not be significant weather present at this time

METAR text: KHAF 050655Z AUTO 17003KT 10SM BKN018 OVC024 13/13 A2996 RMK AO2
Conditions at: KHAF (HALF MOON BAY , CA, US) observed 0655 UTC 05 December 2019
Temperature: 13.0°C (55°F)
Dewpoint: 13.0°C (55°F) [RH = 100%]
Pressure (altimeter): 29.96 inches Hg (1014.6 mb)
Winds: from the S (170 degrees) at 3 MPH (3 knots; 1.5 m/s)
Visibility: 10 or more miles (16+ km)
Ceiling: 1800 feet AGL
Clouds: broken clouds at 1800 feet AGL
overcast cloud deck at 2400 feet AGL
Weather: automated observation with no human augmentation;
there may or may not be significant weather present at this time

METAR text: KHAF 050640Z AUTO 00000KT 10SM BKN018 OVC024 13/13 A2996 RMK AO2
Conditions at: KHAF (HALF MOON BAY , CA, US) observed 0640 UTC 05 December 2019
Temperature: 13.0°C (55°F)
Dewpoint: 13.0°C (55°F) [RH = 100%]
Pressure (altimeter): 29.96 inches Hg (1014.6 mb)
Winds: calm
Visibility: 10 or more miles (16+ km)
Ceiling: 1800 feet AGL
Clouds: broken clouds at 1800 feet AGL
overcast cloud deck at 2400 feet AGL
Weather: automated observation with no human augmentation;
there may or may not be significant weather present at this time

METAR text: KHAF 050635Z AUTO 00000KT 10SM BKN018 OVC024 13/13 A2996 RMK AO2
Conditions at: KHAF (HALF MOON BAY , CA, US) observed 0635 UTC 05 December 2019
Temperature: 13.0°C (55°F)
Dewpoint: 13.0°C (55°F) [RH = 100%]
Pressure (altimeter): 29.96 inches Hg (1014.6 mb)
Winds: calm
Visibility: 10 or more miles (16+ km)
Ceiling: 1800 feet AGL
Clouds: broken clouds at 1800 feet AGL
overcast cloud deck at 2400 feet AGL
Weather: automated observation with no human augmentation;
there may or may not be significant weather present at this time

METAR text: KHAF 050620Z AUTO 17003KT 10SM FEW010 BKN016 OVC024 14/12 A2996 RMK AO2
Conditions at: KHAF (HALF MOON BAY , CA, US) observed 0620 UTC 05 December 2019
Temperature: 14.0°C (57°F)
Dewpoint: 12.0°C (54°F) [RH = 88%]
Pressure (altimeter): 29.96 inches Hg (1014.6 mb)
Winds: from the S (170 degrees) at 3 MPH (3 knots; 1.5 m/s)
Visibility: 10 or more miles (16+ km)
Ceiling: 1600 feet AGL
Clouds: few clouds at 1000 feet AGL
broken clouds at 1600 feet AGL
overcast cloud deck at 2400 feet AGL
Weather: automated observation with no human augmentation;
there may or may not be significant weather present at this time

METAR text: KHAF 050615Z AUTO 14004KT 10SM SCT010 BKN016 OVC022 14/13 A2996 RMK AO2
Conditions at: KHAF (HALF MOON BAY , CA, US) observed 0615 UTC 05 December 2019
Temperature: 14.0°C (57°F)
Dewpoint: 13.0°C (55°F) [RH = 94%]
Pressure (altimeter): 29.96 inches Hg (1014.6 mb)
Winds: from the SE (140 degrees) at 5 MPH (4 knots; 2.1 m/s)
Visibility: 10 or more miles (16+ km)
Ceiling: 1600 feet AGL
Clouds: scattered clouds at 1000 feet AGL
broken clouds at 1600 feet AGL
overcast cloud deck at 2200 feet AGL
Weather: automated observation with no human augmentation;
there may or may not be significant weather present at this time

METAR text: KHAF 050600Z AUTO 13007KT 10SM BKN010 OVC022 14/13 A2995 RMK AO2
Conditions at: KHAF (HALF MOON BAY , CA, US) observed 0600 UTC 05 December 2019
Temperature: 14.0°C (57°F)
Dewpoint: 13.0°C (55°F) [RH = 94%]
Pressure (altimeter): 29.95 inches Hg (1014.3 mb)
Winds: from the SE (130 degrees) at 8 MPH (7 knots; 3.6 m/s)
Visibility: 10 or more miles (16+ km)
Ceiling: 1000 feet AGL
Clouds: broken clouds at 1000 feet AGL
overcast cloud deck at 2200 feet AGL
Weather: automated observation with no human augmentation;
there may or may not be significant weather present at this time

METAR text: KHAF 050555Z AUTO 13007KT 4SM BR OVC010 14/13 A2995 RMK AO2
Conditions at: KHAF (HALF MOON BAY , CA, US) observed 0555 UTC 05 December 2019
Temperature: 14.0°C (57°F)
Dewpoint: 13.0°C (55°F) [RH = 94%]
Pressure (altimeter): 29.95 inches Hg (1014.3 mb)
Winds: from the SE (130 degrees) at 8 MPH (7 knots; 3.6 m/s)
Visibility: 4 miles ( 6 km)
Ceiling: 1000 feet AGL
Clouds: overcast cloud deck at 1000 feet AGL
Weather: BR  (mist)

METAR text: KHAF 050540Z AUTO 12005KT 3SM BR BKN010 OVC015 13/13 A2994 RMK AO2
Conditions at: KHAF (HALF MOON BAY , CA, US) observed 0540 UTC 05 December 2019
Temperature: 13.0°C (55°F)
Dewpoint: 13.0°C (55°F) [RH = 100%]
Pressure (altimeter): 29.94 inches Hg (1014.0 mb)
Winds: from the ESE (120 degrees) at 6 MPH (5 knots; 2.6 m/s)
Visibility: 3 miles ( 5 km)
Ceiling: 1000 feet AGL
Clouds: broken clouds at 1000 feet AGL
overcast cloud deck at 1500 feet AGL
Weather: BR  (mist)

METAR text: KHAF 050535Z AUTO 12006KT 6SM BR BKN010 BKN015 OVC022 13/12 A2994 RMK AO2
Conditions at: KHAF (HALF MOON BAY , CA, US) observed 0535 UTC 05 December 2019
Temperature: 13.0°C (55°F)
Dewpoint: 12.0°C (54°F) [RH = 94%]
Pressure (altimeter): 29.94 inches Hg (1014.0 mb)
Winds: from the ESE (120 degrees) at 7 MPH (6 knots; 3.1 m/s)
Visibility: 6 miles (10 km)
Ceiling: 1000 feet AGL
Clouds: broken clouds at 1000 feet AGL
broken clouds at 1500 feet AGL
overcast cloud deck at 2200 feet AGL
Weather: BR  (mist)

METAR text: KHAF 050520Z AUTO 12006KT 8SM FEW004 BKN010 OVC021 13/12 A2993 RMK AO2
Conditions at: KHAF (HALF MOON BAY , CA, US) observed 0520 UTC 05 December 2019
Temperature: 13.0°C (55°F)
Dewpoint: 12.0°C (54°F) [RH = 94%]
Pressure (altimeter): 29.93 inches Hg (1013.6 mb)
Winds: from the ESE (120 degrees) at 7 MPH (6 knots; 3.1 m/s)
Visibility: 8 miles (13 km)
Ceiling: 1000 feet AGL
Clouds: few clouds at 400 feet AGL
broken clouds at 1000 feet AGL
overcast cloud deck at 2100 feet AGL
Weather: automated observation with no human augmentation;
there may or may not be significant weather present at this time

METAR text: KHAF 050515Z AUTO 12007KT 5SM BR FEW004 BKN010 OVC014 13/12 A2993 RMK AO2
Conditions at: KHAF (HALF MOON BAY , CA, US) observed 0515 UTC 05 December 2019
Temperature: 13.0°C (55°F)
Dewpoint: 12.0°C (54°F) [RH = 94%]
Pressure (altimeter): 29.93 inches Hg (1013.6 mb)
Winds: from the ESE (120 degrees) at 8 MPH (7 knots; 3.6 m/s)
Visibility: 5 miles ( 8 km)
Ceiling: 1000 feet AGL
Clouds: few clouds at 400 feet AGL
broken clouds at 1000 feet AGL
overcast cloud deck at 1400 feet AGL
Weather: BR  (mist)

METAR text: KHAF 050500Z AUTO 11005KT 1 1/4SM -RA SCT004 OVC014 13/12 A2993 RMK AO2 P0001
Conditions at: KHAF (HALF MOON BAY , CA, US) observed 0500 UTC 05 December 2019
Temperature: 13.0°C (55°F)
Dewpoint: 12.0°C (54°F) [RH = 94%]
Pressure (altimeter): 29.93 inches Hg (1013.6 mb)
Winds: from the ESE (110 degrees) at 6 MPH (5 knots; 2.6 m/s)
Visibility: 1.25 miles (2.01 km)
Ceiling: 1400 feet AGL
Clouds: scattered clouds at 400 feet AGL
overcast cloud deck at 1400 feet AGL
Weather: -RA  (light rain)

METAR text: KHAF 050455Z AUTO 11005KT 1 3/4SM -RA SCT004 OVC014 13/12 A2993 RMK AO2 P0001
Conditions at: KHAF (HALF MOON BAY , CA, US) observed 0455 UTC 05 December 2019
Temperature: 13.0°C (55°F)
Dewpoint: 12.0°C (54°F) [RH = 94%]
Pressure (altimeter): 29.93 inches Hg (1013.6 mb)
Winds: from the ESE (110 degrees) at 6 MPH (5 knots; 2.6 m/s)
Visibility: 1.75 miles (2.82 km)
Ceiling: 1400 feet AGL
Clouds: scattered clouds at 400 feet AGL
overcast cloud deck at 1400 feet AGL
Weather: -RA  (light rain)

METAR text: KHAF 050435Z AUTO 16003KT 9SM BKN020 OVC028 13/12 A2993 RMK AO2
Conditions at: KHAF (HALF MOON BAY , CA, US) observed 0435 UTC 05 December 2019
Temperature: 13.0°C (55°F)
Dewpoint: 12.0°C (54°F) [RH = 94%]
Pressure (altimeter): 29.93 inches Hg (1013.6 mb)
Winds: from the SSE (160 degrees) at 3 MPH (3 knots; 1.5 m/s)
Visibility: 9 miles (14 km)
Ceiling: 2000 feet AGL
Clouds: broken clouds at 2000 feet AGL
overcast cloud deck at 2800 feet AGL
Weather: automated observation with no human augmentation;
there may or may not be significant weather present at this time

METAR text: KHAF 050420Z AUTO 00000KT 10SM BKN022 BKN028 OVC035 13/11 A2993 RMK AO2
Conditions at: KHAF (HALF MOON BAY , CA, US) observed 0420 UTC 05 December 2019
Temperature: 13.0°C (55°F)
Dewpoint: 11.0°C (52°F) [RH = 88%]
Pressure (altimeter): 29.93 inches Hg (1013.6 mb)
Winds: calm
Visibility: 10 or more miles (16+ km)
Ceiling: 2200 feet AGL
Clouds: broken clouds at 2200 feet AGL
broken clouds at 2800 feet AGL
overcast cloud deck at 3500 feet AGL
Weather: automated observation with no human augmentation;
there may or may not be significant weather present at this time

METAR text: KHAF 050415Z AUTO 00000KT 10SM SCT022 OVC030 13/11 A2992 RMK AO2
Conditions at: KHAF (HALF MOON BAY , CA, US) observed 0415 UTC 05 December 2019
Temperature: 13.0°C (55°F)
Dewpoint: 11.0°C (52°F) [RH = 88%]
Pressure (altimeter): 29.92 inches Hg (1013.3 mb)
Winds: calm
Visibility: 10 or more miles (16+ km)
Ceiling: 3000 feet AGL
Clouds: scattered clouds at 2200 feet AGL
overcast cloud deck at 3000 feet AGL
Weather: automated observation with no human augmentation;
there may or may not be significant weather present at this time

METAR text: KHAF 050400Z AUTO 00000KT 10SM BKN022 OVC030 13/11 A2992 RMK AO2
Conditions at: KHAF (HALF MOON BAY , CA, US) observed 0400 UTC 05 December 2019
Temperature: 13.0°C (55°F)
Dewpoint: 11.0°C (52°F) [RH = 88%]
Pressure (altimeter): 29.92 inches Hg (1013.3 mb)
Winds: calm
Visibility: 10 or more miles (16+ km)
Ceiling: 2200 feet AGL
Clouds: broken clouds at 2200 feet AGL
overcast cloud deck at 3000 feet AGL
Weather: automated observation with no human augmentation;
there may or may not be significant weather present at this time

METAR text: KHAF 050355Z AUTO 00000KT 10SM BKN024 OVC030 13/11 A2991 RMK AO2
Conditions at: KHAF (HALF MOON BAY , CA, US) observed 0355 UTC 05 December 2019
Temperature: 13.0°C (55°F)
Dewpoint: 11.0°C (52°F) [RH = 88%]
Pressure (altimeter): 29.91 inches Hg (1013.0 mb)
Winds: calm
Visibility: 10 or more miles (16+ km)
Ceiling: 2400 feet AGL
Clouds: broken clouds at 2400 feet AGL
overcast cloud deck at 3000 feet AGL
Weather: automated observation with no human augmentation;
there may or may not be significant weather present at this time

METAR text: KHAF 050340Z AUTO 00000KT 10SM BKN023 OVC029 13/11 A2990 RMK AO2
Conditions at: KHAF (HALF MOON BAY , CA, US) observed 0340 UTC 05 December 2019
Temperature: 13.0°C (55°F)
Dewpoint: 11.0°C (52°F) [RH = 88%]
Pressure (altimeter): 29.90 inches Hg (1012.6 mb)
Winds: calm
Visibility: 10 or more miles (16+ km)
Ceiling: 2300 feet AGL
Clouds: broken clouds at 2300 feet AGL
overcast cloud deck at 2900 feet AGL
Weather: automated observation with no human augmentation;
there may or may not be significant weather present at this time

METAR text: KHAF 050335Z AUTO 06004KT 10SM BKN023 OVC028 13/10 A2990 RMK AO2
Conditions at: KHAF (HALF MOON BAY , CA, US) observed 0335 UTC 05 December 2019
Temperature: 13.0°C (55°F)
Dewpoint: 10.0°C (50°F) [RH = 82%]
Pressure (altimeter): 29.90 inches Hg (1012.6 mb)
Winds: from the ENE (60 degrees) at 5 MPH (4 knots; 2.1 m/s)
Visibility: 10 or more miles (16+ km)
Ceiling: 2300 feet AGL
Clouds: broken clouds at 2300 feet AGL
overcast cloud deck at 2800 feet AGL
Weather: automated observation with no human augmentation;
there may or may not be significant weather present at this time

METAR text: KHAF 050320Z AUTO 06004KT 10SM OVC027 13/10 A2990 RMK AO2
Conditions at: KHAF (HALF MOON BAY , CA, US) observed 0320 UTC 05 December 2019
Temperature: 13.0°C (55°F)
Dewpoint: 10.0°C (50°F) [RH = 82%]
Pressure (altimeter): 29.90 inches Hg (1012.6 mb)
Winds: from the ENE (60 degrees) at 5 MPH (4 knots; 2.1 m/s)
Visibility: 10 or more miles (16+ km)
Ceiling: 2700 feet AGL
Clouds: overcast cloud deck at 2700 feet AGL
Weather: automated observation with no human augmentation;
there may or may not be significant weather present at this time

METAR text: KHAF 050315Z AUTO 06005KT 10SM BKN025 OVC031 13/11 A2990 RMK AO2
Conditions at: KHAF (HALF MOON BAY , CA, US) observed 0315 UTC 05 December 2019
Temperature: 13.0°C (55°F)
Dewpoint: 11.0°C (52°F) [RH = 88%]
Pressure (altimeter): 29.90 inches Hg (1012.6 mb)
Winds: from the ENE (60 degrees) at 6 MPH (5 knots; 2.6 m/s)
Visibility: 10 or more miles (16+ km)
Ceiling: 2500 feet AGL
Clouds: broken clouds at 2500 feet AGL
overcast cloud deck at 3100 feet AGL
Weather: automated observation with no human augmentation;
there may or may not be significant weather present at this time

METAR text: KHAF 050300Z AUTO 05005KT 10SM OVC028 13/11 A2989 RMK AO2
Conditions at: KHAF (HALF MOON BAY , CA, US) observed 0300 UTC 05 December 2019
Temperature: 13.0°C (55°F)
Dewpoint: 11.0°C (52°F) [RH = 88%]
Pressure (altimeter): 29.89 inches Hg (1012.3 mb)
Winds: from the NE (50 degrees) at 6 MPH (5 knots; 2.6 m/s)
Visibility: 10 or more miles (16+ km)
Ceiling: 2800 feet AGL
Clouds: overcast cloud deck at 2800 feet AGL
Weather: automated observation with no human augmentation;
there may or may not be significant weather present at this time

METAR text: KHAF 050255Z AUTO 05006KT 10SM OVC030 13/11 A2989 RMK AO2
Conditions at: KHAF (HALF MOON BAY , CA, US) observed 0255 UTC 05 December 2019
Temperature: 13.0°C (55°F)
Dewpoint: 11.0°C (52°F) [RH = 88%]
Pressure (altimeter): 29.89 inches Hg (1012.3 mb)
Winds: from the NE (50 degrees) at 7 MPH (6 knots; 3.1 m/s)
Visibility: 10 or more miles (16+ km)
Ceiling: 3000 feet AGL
Clouds: overcast cloud deck at 3000 feet AGL
Weather: automated observation with no human augmentation;
there may or may not be significant weather present at this time

METAR text: KHAF 050235Z AUTO 07006KT 10SM OVC030 13/11 A2988 RMK AO2
Conditions at: KHAF (HALF MOON BAY , CA, US) observed 0235 UTC 05 December 2019
Temperature: 13.0°C (55°F)
Dewpoint: 11.0°C (52°F) [RH = 88%]
Pressure (altimeter): 29.88 inches Hg (1011.9 mb)
Winds: from the ENE (70 degrees) at 7 MPH (6 knots; 3.1 m/s)
Visibility: 10 or more miles (16+ km)
Ceiling: 3000 feet AGL
Clouds: overcast cloud deck at 3000 feet AGL
Weather: automated observation with no human augmentation;
there may or may not be significant weather present at this time

METAR text: KHAF 050220Z AUTO 08006KT 10SM OVC030 13/11 A2988 RMK AO2
Conditions at: KHAF (HALF MOON BAY , CA, US) observed 0220 UTC 05 December 2019
Temperature: 13.0°C (55°F)
Dewpoint: 11.0°C (52°F) [RH = 88%]
Pressure (altimeter): 29.88 inches Hg (1011.9 mb)
Winds: from the E (80 degrees) at 7 MPH (6 knots; 3.1 m/s)
Visibility: 10 or more miles (16+ km)
Ceiling: 3000 feet AGL
Clouds: overcast cloud deck at 3000 feet AGL
Weather: automated observation with no human augmentation;
there may or may not be significant weather present at this time

METAR text: KHAF 050215Z AUTO 06006KT 10SM FEW020 OVC032 13/11 A2988 RMK AO2
Conditions at: KHAF (HALF MOON BAY , CA, US) observed 0215 UTC 05 December 2019
Temperature: 13.0°C (55°F)
Dewpoint: 11.0°C (52°F) [RH = 88%]
Pressure (altimeter): 29.88 inches Hg (1011.9 mb)
Winds: from the ENE (60 degrees) at 7 MPH (6 knots; 3.1 m/s)
Visibility: 10 or more miles (16+ km)
Ceiling: 3200 feet AGL
Clouds: few clouds at 2000 feet AGL
overcast cloud deck at 3200 feet AGL
Weather: automated observation with no human augmentation;
there may or may not be significant weather present at this time

METAR text: KHAF 050200Z AUTO 08003KT 10SM SCT020 BKN028 OVC070 13/11 A2987 RMK AO2
Conditions at: KHAF (HALF MOON BAY , CA, US) observed 0200 UTC 05 December 2019
Temperature: 13.0°C (55°F)
Dewpoint: 11.0°C (52°F) [RH = 88%]
Pressure (altimeter): 29.87 inches Hg (1011.6 mb)
Winds: from the E (80 degrees) at 3 MPH (3 knots; 1.5 m/s)
Visibility: 10 or more miles (16+ km)
Ceiling: 2800 feet AGL
Clouds: scattered clouds at 2000 feet AGL
broken clouds at 2800 feet AGL
overcast cloud deck at 7000 feet AGL
Weather: automated observation with no human augmentation;
there may or may not be significant weather present at this time

METAR text: KHAF 050155Z AUTO 06004KT 10SM BKN020 BKN028 OVC032 14/11 A2988 RMK AO2
Conditions at: KHAF (HALF MOON BAY , CA, US) observed 0155 UTC 05 December 2019
Temperature: 14.0°C (57°F)
Dewpoint: 11.0°C (52°F) [RH = 82%]
Pressure (altimeter): 29.88 inches Hg (1011.9 mb)
Winds: from the ENE (60 degrees) at 5 MPH (4 knots; 2.1 m/s)
Visibility: 10 or more miles (16+ km)
Ceiling: 2000 feet AGL
Clouds: broken clouds at 2000 feet AGL
broken clouds at 2800 feet AGL
overcast cloud deck at 3200 feet AGL
Weather: automated observation with no human augmentation;
there may or may not be significant weather present at this time

METAR text: KHAF 050140Z AUTO 06004KT 10SM BKN022 OVC029 14/11 A2987 RMK AO2
Conditions at: KHAF (HALF MOON BAY , CA, US) observed 0140 UTC 05 December 2019
Temperature: 14.0°C (57°F)
Dewpoint: 11.0°C (52°F) [RH = 82%]
Pressure (altimeter): 29.87 inches Hg (1011.6 mb)
Winds: from the ENE (60 degrees) at 5 MPH (4 knots; 2.1 m/s)
Visibility: 10 or more miles (16+ km)
Ceiling: 2200 feet AGL
Clouds: broken clouds at 2200 feet AGL
overcast cloud deck at 2900 feet AGL
Weather: automated observation with no human augmentation;
there may or may not be significant weather present at this time

METAR text: KHAF 050135Z AUTO 08005KT 10SM BKN024 OVC029 13/11 A2987 RMK AO2
Conditions at: KHAF (HALF MOON BAY , CA, US) observed 0135 UTC 05 December 2019
Temperature: 13.0°C (55°F)
Dewpoint: 11.0°C (52°F) [RH = 88%]
Pressure (altimeter): 29.87 inches Hg (1011.6 mb)
Winds: from the E (80 degrees) at 6 MPH (5 knots; 2.6 m/s)
Visibility: 10 or more miles (16+ km)
Ceiling: 2400 feet AGL
Clouds: broken clouds at 2400 feet AGL
overcast cloud deck at 2900 feet AGL
Weather: automated observation with no human augmentation;
there may or may not be significant weather present at this time

METAR text: KHAF 050120Z AUTO 06007KT 10SM FEW019 OVC026 13/11 A2986 RMK AO2
Conditions at: KHAF (HALF MOON BAY , CA, US) observed 0120 UTC 05 December 2019
Temperature: 13.0°C (55°F)
Dewpoint: 11.0°C (52°F) [RH = 88%]
Pressure (altimeter): 29.86 inches Hg (1011.3 mb)
Winds: from the ENE (60 degrees) at 8 MPH (7 knots; 3.6 m/s)
Visibility: 10 or more miles (16+ km)
Ceiling: 2600 feet AGL
Clouds: few clouds at 1900 feet AGL
overcast cloud deck at 2600 feet AGL
Weather: automated observation with no human augmentation;
there may or may not be significant weather present at this time

METAR text: KHAF 050115Z AUTO 07007KT 10SM BKN026 OVC070 13/11 A2986 RMK AO2
Conditions at: KHAF (HALF MOON BAY , CA, US) observed 0115 UTC 05 December 2019
Temperature: 13.0°C (55°F)
Dewpoint: 11.0°C (52°F) [RH = 88%]
Pressure (altimeter): 29.86 inches Hg (1011.3 mb)
Winds: from the ENE (70 degrees) at 8 MPH (7 knots; 3.6 m/s)
Visibility: 10 or more miles (16+ km)
Ceiling: 2600 feet AGL
Clouds: broken clouds at 2600 feet AGL
overcast cloud deck at 7000 feet AGL
Weather: automated observation with no human augmentation;
there may or may not be significant weather present at this time

METAR text: KHAF 050055Z AUTO 05006KT 10SM BKN026 OVC080 13/12 A2985 RMK AO2
Conditions at: KHAF (HALF MOON BAY , CA, US) observed 0055 UTC 05 December 2019
Temperature: 13.0°C (55°F)
Dewpoint: 12.0°C (54°F) [RH = 94%]
Pressure (altimeter): 29.85 inches Hg (1010.9 mb)
Winds: from the NE (50 degrees) at 7 MPH (6 knots; 3.1 m/s)
Visibility: 10 or more miles (16+ km)
Ceiling: 2600 feet AGL
Clouds: broken clouds at 2600 feet AGL
overcast cloud deck at 8000 feet AGL
Weather: automated observation with no human augmentation;
there may or may not be significant weather present at this time

METAR text: KHAF 050040Z AUTO 04003KT 10SM FEW028 SCT034 BKN065 14/12 A2984 RMK AO2
Conditions at: KHAF (HALF MOON BAY , CA, US) observed 0040 UTC 05 December 2019
Temperature: 14.0°C (57°F)
Dewpoint: 12.0°C (54°F) [RH = 88%]
Pressure (altimeter): 29.84 inches Hg (1010.6 mb)
Winds: from the NE (40 degrees) at 3 MPH (3 knots; 1.5 m/s)
Visibility: 10 or more miles (16+ km)
Ceiling: 6500 feet AGL
Clouds: few clouds at 2800 feet AGL
scattered clouds at 3400 feet AGL
broken clouds at 6500 feet AGL
Weather: automated observation with no human augmentation;
there may or may not be significant weather present at this time

METAR text: KHAF 050035Z AUTO 05003KT 10SM FEW023 SCT034 BKN065 14/12 A2984 RMK AO2
Conditions at: KHAF (HALF MOON BAY , CA, US) observed 0035 UTC 05 December 2019
Temperature: 14.0°C (57°F)
Dewpoint: 12.0°C (54°F) [RH = 88%]
Pressure (altimeter): 29.84 inches Hg (1010.6 mb)
Winds: from the NE (50 degrees) at 3 MPH (3 knots; 1.5 m/s)
Visibility: 10 or more miles (16+ km)
Ceiling: 6500 feet AGL
Clouds: few clouds at 2300 feet AGL
scattered clouds at 3400 feet AGL
broken clouds at 6500 feet AGL
Weather: automated observation with no human augmentation;
there may or may not be significant weather present at this time

METAR text: KHAF 050020Z AUTO 08003KT 10SM BKN025 BKN034 OVC065 14/12 A2984 RMK AO2
Conditions at: KHAF (HALF MOON BAY , CA, US) observed 0020 UTC 05 December 2019
Temperature: 14.0°C (57°F)
Dewpoint: 12.0°C (54°F) [RH = 88%]
Pressure (altimeter): 29.84 inches Hg (1010.6 mb)
Winds: from the E (80 degrees) at 3 MPH (3 knots; 1.5 m/s)
Visibility: 10 or more miles (16+ km)
Ceiling: 2500 feet AGL
Clouds: broken clouds at 2500 feet AGL
broken clouds at 3400 feet AGL
overcast cloud deck at 6500 feet AGL
Weather: automated observation with no human augmentation;
there may or may not be significant weather present at this time

METAR text: KHAF 050015Z AUTO 07004KT 10SM BKN025 OVC034 14/12 A2984 RMK AO2
Conditions at: KHAF (HALF MOON BAY , CA, US) observed 0015 UTC 05 December 2019
Temperature: 14.0°C (57°F)
Dewpoint: 12.0°C (54°F) [RH = 88%]
Pressure (altimeter): 29.84 inches Hg (1010.6 mb)
Winds: from the ENE (70 degrees) at 5 MPH (4 knots; 2.1 m/s)
Visibility: 10 or more miles (16+ km)
Ceiling: 2500 feet AGL
Clouds: broken clouds at 2500 feet AGL
overcast cloud deck at 3400 feet AGL
Weather: automated observation with no human augmentation;
there may or may not be significant weather present at this time

METAR text: KHAF 050000Z AUTO 06004KT 10SM OVC027 14/12 A2984 RMK AO2
Conditions at: KHAF (HALF MOON BAY , CA, US) observed 0000 UTC 05 December 2019
Temperature: 14.0°C (57°F)
Dewpoint: 12.0°C (54°F) [RH = 88%]
Pressure (altimeter): 29.84 inches Hg (1010.6 mb)
Winds: from the ENE (60 degrees) at 5 MPH (4 knots; 2.1 m/s)
Visibility: 10 or more miles (16+ km)
Ceiling: 2700 feet AGL
Clouds: overcast cloud deck at 2700 feet AGL
Weather: automated observation with no human augmentation;
there may or may not be significant weather present at this time

METAR text: KHAF 042355Z AUTO 07004KT 10SM OVC029 14/12 A2984 RMK AO2
Conditions at: KHAF (HALF MOON BAY , CA, US) observed 2355 UTC 04 December 2019
Temperature: 14.0°C (57°F)
Dewpoint: 12.0°C (54°F) [RH = 88%]
Pressure (altimeter): 29.84 inches Hg (1010.6 mb)
Winds: from the ENE (70 degrees) at 5 MPH (4 knots; 2.1 m/s)
Visibility: 10 or more miles (16+ km)
Ceiling: 2900 feet AGL
Clouds: overcast cloud deck at 2900 feet AGL
Weather: automated observation with no human augmentation;
there may or may not be significant weather present at this time

METAR text: KHAF 042340Z AUTO 06004KT 10SM SCT026 BKN032 BKN039 14/12 A2983 RMK AO2
Conditions at: KHAF (HALF MOON BAY , CA, US) observed 2340 UTC 04 December 2019
Temperature: 14.0°C (57°F)
Dewpoint: 12.0°C (54°F) [RH = 88%]
Pressure (altimeter): 29.83 inches Hg (1010.2 mb)
Winds: from the ENE (60 degrees) at 5 MPH (4 knots; 2.1 m/s)
Visibility: 10 or more miles (16+ km)
Ceiling: 3200 feet AGL
Clouds: scattered clouds at 2600 feet AGL
broken clouds at 3200 feet AGL
broken clouds at 3900 feet AGL
Weather: automated observation with no human augmentation;
there may or may not be significant weather present at this time

METAR text: KHAF 042335Z AUTO 06005KT 10SM SCT025 BKN032 BKN039 14/12 A2983 RMK AO2
Conditions at: KHAF (HALF MOON BAY , CA, US) observed 2335 UTC 04 December 2019
Temperature: 14.0°C (57°F)
Dewpoint: 12.0°C (54°F) [RH = 88%]
Pressure (altimeter): 29.83 inches Hg (1010.2 mb)
Winds: from the ENE (60 degrees) at 6 MPH (5 knots; 2.6 m/s)
Visibility: 10 or more miles (16+ km)
Ceiling: 3200 feet AGL
Clouds: scattered clouds at 2500 feet AGL
broken clouds at 3200 feet AGL
broken clouds at 3900 feet AGL
Weather: automated observation with no human augmentation;
there may or may not be significant weather present at this time

METAR text: KHAF 042315Z AUTO 00000KT 10SM CLR 15/11 A2983 RMK AO2
Conditions at: KHAF (HALF MOON BAY , CA, US) observed 2315 UTC 04 December 2019
Temperature: 15.0°C (59°F)
Dewpoint: 11.0°C (52°F) [RH = 77%]
Pressure (altimeter): 29.83 inches Hg (1010.2 mb)
Winds: calm
Visibility: 10 or more miles (16+ km)
Ceiling: at least 12,000 feet AGL
Clouds: sky clear below 12,000 feet AGL
Weather: automated observation with no human augmentation;
there may or may not be significant weather present at this time

METAR text: KHAF 042300Z AUTO 00000KT 10SM CLR 15/11 A2981 RMK AO2
Conditions at: KHAF (HALF MOON BAY , CA, US) observed 2300 UTC 04 December 2019
Temperature: 15.0°C (59°F)
Dewpoint: 11.0°C (52°F) [RH = 77%]
Pressure (altimeter): 29.81 inches Hg (1009.6 mb)
Winds: calm
Visibility: 10 or more miles (16+ km)
Ceiling: at least 12,000 feet AGL
Clouds: sky clear below 12,000 feet AGL
Weather: automated observation with no human augmentation;
there may or may not be significant weather present at this time

METAR text: KHAF 042255Z AUTO 00000KT 10SM CLR 15/11 A2981 RMK AO2
Conditions at: KHAF (HALF MOON BAY , CA, US) observed 2255 UTC 04 December 2019
Temperature: 15.0°C (59°F)
Dewpoint: 11.0°C (52°F) [RH = 77%]
Pressure (altimeter): 29.81 inches Hg (1009.6 mb)
Winds: calm
Visibility: 10 or more miles (16+ km)
Ceiling: at least 12,000 feet AGL
Clouds: sky clear below 12,000 feet AGL
Weather: automated observation with no human augmentation;
there may or may not be significant weather present at this time

METAR text: KHAF 042240Z AUTO 12003KT 10SM CLR 15/11 A2981 RMK AO2
Conditions at: KHAF (HALF MOON BAY , CA, US) observed 2240 UTC 04 December 2019
Temperature: 15.0°C (59°F)
Dewpoint: 11.0°C (52°F) [RH = 77%]
Pressure (altimeter): 29.81 inches Hg (1009.6 mb)
Winds: from the ESE (120 degrees) at 3 MPH (3 knots; 1.5 m/s)
Visibility: 10 or more miles (16+ km)
Ceiling: at least 12,000 feet AGL
Clouds: sky clear below 12,000 feet AGL
Weather: automated observation with no human augmentation;
there may or may not be significant weather present at this time

METAR text: KHAF 042235Z AUTO 12004KT 10SM CLR 15/11 A2980 RMK AO2
Conditions at: KHAF (HALF MOON BAY , CA, US) observed 2235 UTC 04 December 2019
Temperature: 15.0°C (59°F)
Dewpoint: 11.0°C (52°F) [RH = 77%]
Pressure (altimeter): 29.80 inches Hg (1009.2 mb)
Winds: from the ESE (120 degrees) at 5 MPH (4 knots; 2.1 m/s)
Visibility: 10 or more miles (16+ km)
Ceiling: at least 12,000 feet AGL
Clouds: sky clear below 12,000 feet AGL
Weather: automated observation with no human augmentation;
there may or may not be significant weather present at this time

METAR text: KHAF 042220Z AUTO 13004KT 10SM FEW075 15/12 A2980 RMK AO2
Conditions at: KHAF (HALF MOON BAY , CA, US) observed 2220 UTC 04 December 2019
Temperature: 15.0°C (59°F)
Dewpoint: 12.0°C (54°F) [RH = 82%]
Pressure (altimeter): 29.80 inches Hg (1009.2 mb)
Winds: from the SE (130 degrees) at 5 MPH (4 knots; 2.1 m/s)
Visibility: 10 or more miles (16+ km)
Ceiling: at least 12,000 feet AGL
Clouds: few clouds at 7500 feet AGL
Weather: automated observation with no human augmentation;
there may or may not be significant weather present at this time

METAR text: KHAF 042215Z AUTO 12003KT 10SM SCT075 15/12 A2980 RMK AO2
Conditions at: KHAF (HALF MOON BAY , CA, US) observed 2215 UTC 04 December 2019
Temperature: 15.0°C (59°F)
Dewpoint: 12.0°C (54°F) [RH = 82%]
Pressure (altimeter): 29.80 inches Hg (1009.2 mb)
Winds: from the ESE (120 degrees) at 3 MPH (3 knots; 1.5 m/s)
Visibility: 10 or more miles (16+ km)
Ceiling: at least 12,000 feet AGL
Clouds: scattered clouds at 7500 feet AGL
Weather: automated observation with no human augmentation;
there may or may not be significant weather present at this time

METAR text: KHAF 042200Z AUTO 14004KT 10SM BKN075 15/12 A2981 RMK AO2
Conditions at: KHAF (HALF MOON BAY , CA, US) observed 2200 UTC 04 December 2019
Temperature: 15.0°C (59°F)
Dewpoint: 12.0°C (54°F) [RH = 82%]
Pressure (altimeter): 29.81 inches Hg (1009.6 mb)
Winds: from the SE (140 degrees) at 5 MPH (4 knots; 2.1 m/s)
Visibility: 10 or more miles (16+ km)
Ceiling: 7500 feet AGL
Clouds: broken clouds at 7500 feet AGL
Weather: automated observation with no human augmentation;
there may or may not be significant weather present at this time

METAR text: KHAF 042155Z AUTO 14003KT 10SM FEW021 FEW031 OVC075 15/11 A2981 RMK AO2
Conditions at: KHAF (HALF MOON BAY , CA, US) observed 2155 UTC 04 December 2019
Temperature: 15.0°C (59°F)
Dewpoint: 11.0°C (52°F) [RH = 77%]
Pressure (altimeter): 29.81 inches Hg (1009.6 mb)
Winds: from the SE (140 degrees) at 3 MPH (3 knots; 1.5 m/s)
Visibility: 10 or more miles (16+ km)
Ceiling: 7500 feet AGL
Clouds: few clouds at 2100 feet AGL
few clouds at 3100 feet AGL
overcast cloud deck at 7500 feet AGL
Weather: automated observation with no human augmentation;
there may or may not be significant weather present at this time

METAR text: KHAF 042140Z AUTO 12003KT 10SM FEW021 BKN075 OVC110 15/11 A2982 RMK AO2
Conditions at: KHAF (HALF MOON BAY , CA, US) observed 2140 UTC 04 December 2019
Temperature: 15.0°C (59°F)
Dewpoint: 11.0°C (52°F) [RH = 77%]
Pressure (altimeter): 29.82 inches Hg (1009.9 mb)
Winds: from the ESE (120 degrees) at 3 MPH (3 knots; 1.5 m/s)
Visibility: 10 or more miles (16+ km)
Ceiling: 7500 feet AGL
Clouds: few clouds at 2100 feet AGL
broken clouds at 7500 feet AGL
overcast cloud deck at 11000 feet AGL
Weather: automated observation with no human augmentation;
there may or may not be significant weather present at this time

METAR text: KHAF 042135Z AUTO 13004KT 10SM FEW021 SCT031 BKN100 15/11 A2982 RMK AO2
Conditions at: KHAF (HALF MOON BAY , CA, US) observed 2135 UTC 04 December 2019
Temperature: 15.0°C (59°F)
Dewpoint: 11.0°C (52°F) [RH = 77%]
Pressure (altimeter): 29.82 inches Hg (1009.9 mb)
Winds: from the SE (130 degrees) at 5 MPH (4 knots; 2.1 m/s)
Visibility: 10 or more miles (16+ km)
Ceiling: 10000 feet AGL
Clouds: few clouds at 2100 feet AGL
scattered clouds at 3100 feet AGL
broken clouds at 10000 feet AGL
Weather: automated observation with no human augmentation;
there may or may not be significant weather present at this time

METAR text: KHAF 042115Z AUTO 15005KT 10SM FEW055 SCT070 BKN100 15/12 A2981 RMK AO2
Conditions at: KHAF (HALF MOON BAY , CA, US) observed 2115 UTC 04 December 2019
Temperature: 15.0°C (59°F)
Dewpoint: 12.0°C (54°F) [RH = 82%]
Pressure (altimeter): 29.81 inches Hg (1009.6 mb)
Winds: from the SSE (150 degrees) at 6 MPH (5 knots; 2.6 m/s)
Visibility: 10 or more miles (16+ km)
Ceiling: 10000 feet AGL
Clouds: few clouds at 5500 feet AGL
scattered clouds at 7000 feet AGL
broken clouds at 10000 feet AGL
Weather: automated observation with no human augmentation;
there may or may not be significant weather present at this time

METAR text: KHAF 042100Z AUTO 18004KT 10SM SCT055 BKN070 BKN095 15/12 A2981 RMK AO2
Conditions at: KHAF (HALF MOON BAY , CA, US) observed 2100 UTC 04 December 2019
Temperature: 15.0°C (59°F)
Dewpoint: 12.0°C (54°F) [RH = 82%]
Pressure (altimeter): 29.81 inches Hg (1009.6 mb)
Winds: from the S (180 degrees) at 5 MPH (4 knots; 2.1 m/s)
Visibility: 10 or more miles (16+ km)
Ceiling: 7000 feet AGL
Clouds: scattered clouds at 5500 feet AGL
broken clouds at 7000 feet AGL
broken clouds at 9500 feet AGL
Weather: automated observation with no human augmentation;
there may or may not be significant weather present at this time

METAR text: KHAF 042055Z AUTO 15003KT 10SM BKN055 BKN070 OVC095 14/12 A2981 RMK AO2
Conditions at: KHAF (HALF MOON BAY , CA, US) observed 2055 UTC 04 December 2019
Temperature: 14.0°C (57°F)
Dewpoint: 12.0°C (54°F) [RH = 88%]
Pressure (altimeter): 29.81 inches Hg (1009.6 mb)
Winds: from the SSE (150 degrees) at 3 MPH (3 knots; 1.5 m/s)
Visibility: 10 or more miles (16+ km)
Ceiling: 5500 feet AGL
Clouds: broken clouds at 5500 feet AGL
broken clouds at 7000 feet AGL
overcast cloud deck at 9500 feet AGL
Weather: automated observation with no human augmentation;
there may or may not be significant weather present at this time

METAR text: KHAF 042040Z AUTO 05007KT 10SM FEW028 SCT034 BKN055 14/12 A2981 RMK AO2
Conditions at: KHAF (HALF MOON BAY , CA, US) observed 2040 UTC 04 December 2019
Temperature: 14.0°C (57°F)
Dewpoint: 12.0°C (54°F) [RH = 88%]
Pressure (altimeter): 29.81 inches Hg (1009.6 mb)
Winds: from the NE (50 degrees) at 8 MPH (7 knots; 3.6 m/s)
Visibility: 10 or more miles (16+ km)
Ceiling: 5500 feet AGL
Clouds: few clouds at 2800 feet AGL
scattered clouds at 3400 feet AGL
broken clouds at 5500 feet AGL
Weather: automated observation with no human augmentation;
there may or may not be significant weather present at this time

METAR text: KHAF 042035Z AUTO 05007KT 9SM SCT028 SCT034 BKN055 13/11 A2981 RMK AO2
Conditions at: KHAF (HALF MOON BAY , CA, US) observed 2035 UTC 04 December 2019
Temperature: 13.0°C (55°F)
Dewpoint: 11.0°C (52°F) [RH = 88%]
Pressure (altimeter): 29.81 inches Hg (1009.6 mb)
Winds: from the NE (50 degrees) at 8 MPH (7 knots; 3.6 m/s)
Visibility: 9 miles (14 km)
Ceiling: 5500 feet AGL
Clouds: scattered clouds at 2800 feet AGL
scattered clouds at 3400 feet AGL
broken clouds at 5500 feet AGL
Weather: automated observation with no human augmentation;
there may or may not be significant weather present at this time

METAR text: KHAF 042020Z AUTO 06008KT 10SM BKN028 OVC034 13/11 A2982 RMK AO2
Conditions at: KHAF (HALF MOON BAY , CA, US) observed 2020 UTC 04 December 2019
Temperature: 13.0°C (55°F)
Dewpoint: 11.0°C (52°F) [RH = 88%]
Pressure (altimeter): 29.82 inches Hg (1009.9 mb)
Winds: from the ENE (60 degrees) at 9 MPH (8 knots; 4.1 m/s)
Visibility: 10 or more miles (16+ km)
Ceiling: 2800 feet AGL
Clouds: broken clouds at 2800 feet AGL
overcast cloud deck at 3400 feet AGL
Weather: automated observation with no human augmentation;
there may or may not be significant weather present at this time

METAR text: KHAF 042015Z AUTO 06008KT 10SM OVC028 13/11 A2982 RMK AO2
Conditions at: KHAF (HALF MOON BAY , CA, US) observed 2015 UTC 04 December 2019
Temperature: 13.0°C (55°F)
Dewpoint: 11.0°C (52°F) [RH = 88%]
Pressure (altimeter): 29.82 inches Hg (1009.9 mb)
Winds: from the ENE (60 degrees) at 9 MPH (8 knots; 4.1 m/s)
Visibility: 10 or more miles (16+ km)
Ceiling: 2800 feet AGL
Clouds: overcast cloud deck at 2800 feet AGL
Weather: automated observation with no human augmentation;
there may or may not be significant weather present at this time

METAR text: KHAF 042000Z AUTO 05009KT 10SM BKN028 13/11 A2982 RMK AO2
Conditions at: KHAF (HALF MOON BAY , CA, US) observed 2000 UTC 04 December 2019
Temperature: 13.0°C (55°F)
Dewpoint: 11.0°C (52°F) [RH = 88%]
Pressure (altimeter): 29.82 inches Hg (1009.9 mb)
Winds: from the NE (50 degrees) at 10 MPH (9 knots; 4.6 m/s)
Visibility: 10 or more miles (16+ km)
Ceiling: 2800 feet AGL
Clouds: broken clouds at 2800 feet AGL
Weather: automated observation with no human augmentation;
there may or may not be significant weather present at this time

METAR text: KHAF 041955Z AUTO 07007KT 8SM -RA SCT028 13/11 A2982 RMK AO2
Conditions at: KHAF (HALF MOON BAY , CA, US) observed 1955 UTC 04 December 2019
Temperature: 13.0°C (55°F)
Dewpoint: 11.0°C (52°F) [RH = 88%]
Pressure (altimeter): 29.82 inches Hg (1009.9 mb)
Winds: from the ENE (70 degrees) at 8 MPH (7 knots; 3.6 m/s)
Visibility: 8 miles (13 km)
Ceiling: at least 12,000 feet AGL
Clouds: scattered clouds at 2800 feet AGL
Weather: -RA  (light rain)

METAR text: KHAF 041940Z AUTO 06007KT 5SM -RA FEW031 FEW080 13/11 A2983 RMK AO2
Conditions at: KHAF (HALF MOON BAY , CA, US) observed 1940 UTC 04 December 2019
Temperature: 13.0°C (55°F)
Dewpoint: 11.0°C (52°F) [RH = 88%]
Pressure (altimeter): 29.83 inches Hg (1010.2 mb)
Winds: from the ENE (60 degrees) at 8 MPH (7 knots; 3.6 m/s)
Visibility: 5 miles ( 8 km)
Ceiling: at least 12,000 feet AGL
Clouds: few clouds at 3100 feet AGL
few clouds at 8000 feet AGL
Weather: -RA  (light rain)

METAR text: KHAF 041935Z AUTO 05009KT 5SM -RA FEW080 FEW100 13/11 A2983 RMK AO2
Conditions at: KHAF (HALF MOON BAY , CA, US) observed 1935 UTC 04 December 2019
Temperature: 13.0°C (55°F)
Dewpoint: 11.0°C (52°F) [RH = 88%]
Pressure (altimeter): 29.83 inches Hg (1010.2 mb)
Winds: from the NE (50 degrees) at 10 MPH (9 knots; 4.6 m/s)
Visibility: 5 miles ( 8 km)
Ceiling: at least 12,000 feet AGL
Clouds: few clouds at 8000 feet AGL
few clouds at 10000 feet AGL
Weather: -RA  (light rain)

METAR text: KHAF 041920Z AUTO 05009KT 7SM -RA SCT080 BKN100 13/11 A2984 RMK AO2
Conditions at: KHAF (HALF MOON BAY , CA, US) observed 1920 UTC 04 December 2019
Temperature: 13.0°C (55°F)
Dewpoint: 11.0°C (52°F) [RH = 88%]
Pressure (altimeter): 29.84 inches Hg (1010.6 mb)
Winds: from the NE (50 degrees) at 10 MPH (9 knots; 4.6 m/s)
Visibility: 7 miles (11 km)
Ceiling: 10000 feet AGL
Clouds: scattered clouds at 8000 feet AGL
broken clouds at 10000 feet AGL
Weather: -RA  (light rain)

METAR text: KHAF 041915Z AUTO 05010KT 9SM FEW065 SCT080 BKN100 13/11 A2984 RMK AO2
Conditions at: KHAF (HALF MOON BAY , CA, US) observed 1915 UTC 04 December 2019
Temperature: 13.0°C (55°F)
Dewpoint: 11.0°C (52°F) [RH = 88%]
Pressure (altimeter): 29.84 inches Hg (1010.6 mb)
Winds: from the NE (50 degrees) at 12 MPH (10 knots; 5.1 m/s)
Visibility: 9 miles (14 km)
Ceiling: 10000 feet AGL
Clouds: few clouds at 6500 feet AGL
scattered clouds at 8000 feet AGL
broken clouds at 10000 feet AGL
Weather: automated observation with no human augmentation;
there may or may not be significant weather present at this time

METAR text: KHAF 041855Z AUTO 36003KT 10SM BKN065 OVC070 14/12 A2985 RMK AO2
Conditions at: KHAF (HALF MOON BAY , CA, US) observed 1855 UTC 04 December 2019
Temperature: 14.0°C (57°F)
Dewpoint: 12.0°C (54°F) [RH = 88%]
Pressure (altimeter): 29.85 inches Hg (1010.9 mb)
Winds: from the N (360 degrees) at 3 MPH (3 knots; 1.5 m/s)
Visibility: 10 or more miles (16+ km)
Ceiling: 6500 feet AGL
Clouds: broken clouds at 6500 feet AGL
overcast cloud deck at 7000 feet AGL
Weather: automated observation with no human augmentation;
there may or may not be significant weather present at this time

METAR text: KHAF 041840Z AUTO 00000KT 10SM OVC055 14/11 A2985 RMK AO2
Conditions at: KHAF (HALF MOON BAY , CA, US) observed 1840 UTC 04 December 2019
Temperature: 14.0°C (57°F)
Dewpoint: 11.0°C (52°F) [RH = 82%]
Pressure (altimeter): 29.85 inches Hg (1010.9 mb)
Winds: calm
Visibility: 10 or more miles (16+ km)
Ceiling: 5500 feet AGL
Clouds: overcast cloud deck at 5500 feet AGL
Weather: automated observation with no human augmentation;
there may or may not be significant weather present at this time

METAR text: KHAF 041835Z AUTO 00000KT 10SM OVC055 14/11 A2985 RMK AO2
Conditions at: KHAF (HALF MOON BAY , CA, US) observed 1835 UTC 04 December 2019
Temperature: 14.0°C (57°F)
Dewpoint: 11.0°C (52°F) [RH = 82%]
Pressure (altimeter): 29.85 inches Hg (1010.9 mb)
Winds: calm
Visibility: 10 or more miles (16+ km)
Ceiling: 5500 feet AGL
Clouds: overcast cloud deck at 5500 feet AGL
Weather: automated observation with no human augmentation;
there may or may not be significant weather present at this time

METAR text: KHAF 041820Z AUTO 00000KT 10SM FEW029 SCT044 OVC055 13/11 A2985 RMK AO2
Conditions at: KHAF (HALF MOON BAY , CA, US) observed 1820 UTC 04 December 2019
Temperature: 13.0°C (55°F)
Dewpoint: 11.0°C (52°F) [RH = 88%]
Pressure (altimeter): 29.85 inches Hg (1010.9 mb)
Winds: calm
Visibility: 10 or more miles (16+ km)
Ceiling: 5500 feet AGL
Clouds: few clouds at 2900 feet AGL
scattered clouds at 4400 feet AGL
overcast cloud deck at 5500 feet AGL
Weather: automated observation with no human augmentation;
there may or may not be significant weather present at this time

METAR text: KHAF 041815Z AUTO 00000KT 10SM SCT029 SCT044 OVC055 13/11 A2985 RMK AO2
Conditions at: KHAF (HALF MOON BAY , CA, US) observed 1815 UTC 04 December 2019
Temperature: 13.0°C (55°F)
Dewpoint: 11.0°C (52°F) [RH = 88%]
Pressure (altimeter): 29.85 inches Hg (1010.9 mb)
Winds: calm
Visibility: 10 or more miles (16+ km)
Ceiling: 5500 feet AGL
Clouds: scattered clouds at 2900 feet AGL
scattered clouds at 4400 feet AGL
overcast cloud deck at 5500 feet AGL
Weather: automated observation with no human augmentation;
there may or may not be significant weather present at this time

METAR text: KHAF 041800Z AUTO 00000KT 9SM BKN029 OVC039 13/11 A2985 RMK AO2
Conditions at: KHAF (HALF MOON BAY , CA, US) observed 1800 UTC 04 December 2019
Temperature: 13.0°C (55°F)
Dewpoint: 11.0°C (52°F) [RH = 88%]
Pressure (altimeter): 29.85 inches Hg (1010.9 mb)
Winds: calm
Visibility: 9 miles (14 km)
Ceiling: 2900 feet AGL
Clouds: broken clouds at 2900 feet AGL
overcast cloud deck at 3900 feet AGL
Weather: automated observation with no human augmentation;
there may or may not be significant weather present at this time

METAR text: KHAF 041755Z AUTO 00000KT 10SM BKN029 OVC039 13/11 A2985 RMK AO2
Conditions at: KHAF (HALF MOON BAY , CA, US) observed 1755 UTC 04 December 2019
Temperature: 13.0°C (55°F)
Dewpoint: 11.0°C (52°F) [RH = 88%]
Pressure (altimeter): 29.85 inches Hg (1010.9 mb)
Winds: calm
Visibility: 10 or more miles (16+ km)
Ceiling: 2900 feet AGL
Clouds: broken clouds at 2900 feet AGL
overcast cloud deck at 3900 feet AGL
Weather: automated observation with no human augmentation;
there may or may not be significant weather present at this time

METAR text: KHAF 041740Z AUTO 00000KT 10SM OVC039 13/11 A2985 RMK AO2
Conditions at: KHAF (HALF MOON BAY , CA, US) observed 1740 UTC 04 December 2019
Temperature: 13.0°C (55°F)
Dewpoint: 11.0°C (52°F) [RH = 88%]
Pressure (altimeter): 29.85 inches Hg (1010.9 mb)
Winds: calm
Visibility: 10 or more miles (16+ km)
Ceiling: 3900 feet AGL
Clouds: overcast cloud deck at 3900 feet AGL
Weather: automated observation with no human augmentation;
there may or may not be significant weather present at this time

METAR text: KHAF 041735Z AUTO 00000KT 10SM FEW030 OVC039 13/11 A2985 RMK AO2
Conditions at: KHAF (HALF MOON BAY , CA, US) observed 1735 UTC 04 December 2019
Temperature: 13.0°C (55°F)
Dewpoint: 11.0°C (52°F) [RH = 88%]
Pressure (altimeter): 29.85 inches Hg (1010.9 mb)
Winds: calm
Visibility: 10 or more miles (16+ km)
Ceiling: 3900 feet AGL
Clouds: few clouds at 3000 feet AGL
overcast cloud deck at 3900 feet AGL
Weather: automated observation with no human augmentation;
there may or may not be significant weather present at this time

METAR text: KHAF 041715Z AUTO 00000KT 10SM OVC033 13/11 A2984 RMK AO2
Conditions at: KHAF (HALF MOON BAY , CA, US) observed 1715 UTC 04 December 2019
Temperature: 13.0°C (55°F)
Dewpoint: 11.0°C (52°F) [RH = 88%]
Pressure (altimeter): 29.84 inches Hg (1010.6 mb)
Winds: calm
Visibility: 10 or more miles (16+ km)
Ceiling: 3300 feet AGL
Clouds: overcast cloud deck at 3300 feet AGL
Weather: automated observation with no human augmentation;
there may or may not be significant weather present at this time

METAR text: KHAF 041655Z AUTO 03004KT 10SM OVC031 13/10 A2983 RMK AO2
Conditions at: KHAF (HALF MOON BAY , CA, US) observed 1655 UTC 04 December 2019
Temperature: 13.0°C (55°F)
Dewpoint: 10.0°C (50°F) [RH = 82%]
Pressure (altimeter): 29.83 inches Hg (1010.2 mb)
Winds: from the NNE (30 degrees) at 5 MPH (4 knots; 2.1 m/s)
Visibility: 10 or more miles (16+ km)
Ceiling: 3100 feet AGL
Clouds: overcast cloud deck at 3100 feet AGL
Weather: automated observation with no human augmentation;
there may or may not be significant weather present at this time

METAR text: KHAF 041640Z AUTO 35003KT 10SM OVC033 13/11 A2982 RMK AO2
Conditions at: KHAF (HALF MOON BAY , CA, US) observed 1640 UTC 04 December 2019
Temperature: 13.0°C (55°F)
Dewpoint: 11.0°C (52°F) [RH = 88%]
Pressure (altimeter): 29.82 inches Hg (1009.9 mb)
Winds: from the N (350 degrees) at 3 MPH (3 knots; 1.5 m/s)
Visibility: 10 or more miles (16+ km)
Ceiling: 3300 feet AGL
Clouds: overcast cloud deck at 3300 feet AGL
Weather: automated observation with no human augmentation;
there may or may not be significant weather present at this time

METAR text: KHAF 041635Z AUTO 00000KT 10SM OVC033 13/11 A2982 RMK AO2
Conditions at: KHAF (HALF MOON BAY , CA, US) observed 1635 UTC 04 December 2019
Temperature: 13.0°C (55°F)
Dewpoint: 11.0°C (52°F) [RH = 88%]
Pressure (altimeter): 29.82 inches Hg (1009.9 mb)
Winds: calm
Visibility: 10 or more miles (16+ km)
Ceiling: 3300 feet AGL
Clouds: overcast cloud deck at 3300 feet AGL
Weather: automated observation with no human augmentation;
there may or may not be significant weather present at this time

METAR text: KHAF 041620Z AUTO 03003KT 9SM SCT027 OVC033 12/10 A2982 RMK AO2
Conditions at: KHAF (HALF MOON BAY , CA, US) observed 1620 UTC 04 December 2019
Temperature: 12.0°C (54°F)
Dewpoint: 10.0°C (50°F) [RH = 88%]
Pressure (altimeter): 29.82 inches Hg (1009.9 mb)
Winds: from the NNE (30 degrees) at 3 MPH (3 knots; 1.5 m/s)
Visibility: 9 miles (14 km)
Ceiling: 3300 feet AGL
Clouds: scattered clouds at 2700 feet AGL
overcast cloud deck at 3300 feet AGL
Weather: automated observation with no human augmentation;
there may or may not be significant weather present at this time

METAR text: KHAF 041615Z AUTO 03003KT 10SM BKN027 OVC033 12/10 A2982 RMK AO2
Conditions at: KHAF (HALF MOON BAY , CA, US) observed 1615 UTC 04 December 2019
Temperature: 12.0°C (54°F)
Dewpoint: 10.0°C (50°F) [RH = 88%]
Pressure (altimeter): 29.82 inches Hg (1009.9 mb)
Winds: from the NNE (30 degrees) at 3 MPH (3 knots; 1.5 m/s)
Visibility: 10 or more miles (16+ km)
Ceiling: 2700 feet AGL
Clouds: broken clouds at 2700 feet AGL
overcast cloud deck at 3300 feet AGL
Weather: automated observation with no human augmentation;
there may or may not be significant weather present at this time

METAR text: KHAF 041600Z AUTO 04006KT 8SM OVC029 12/10 A2982 RMK AO2
Conditions at: KHAF (HALF MOON BAY , CA, US) observed 1600 UTC 04 December 2019
Temperature: 12.0°C (54°F)
Dewpoint: 10.0°C (50°F) [RH = 88%]
Pressure (altimeter): 29.82 inches Hg (1009.9 mb)
Winds: from the NE (40 degrees) at 7 MPH (6 knots; 3.1 m/s)
Visibility: 8 miles (13 km)
Ceiling: 2900 feet AGL
Clouds: overcast cloud deck at 2900 feet AGL
Weather: automated observation with no human augmentation;
there may or may not be significant weather present at this time

METAR text: KHAF 041555Z AUTO 04007KT 9SM BKN029 OVC039 12/10 A2982 RMK AO2
Conditions at: KHAF (HALF MOON BAY , CA, US) observed 1555 UTC 04 December 2019
Temperature: 12.0°C (54°F)
Dewpoint: 10.0°C (50°F) [RH = 88%]
Pressure (altimeter): 29.82 inches Hg (1009.9 mb)
Winds: from the NE (40 degrees) at 8 MPH (7 knots; 3.6 m/s)
Visibility: 9 miles (14 km)
Ceiling: 2900 feet AGL
Clouds: broken clouds at 2900 feet AGL
overcast cloud deck at 3900 feet AGL
Weather: automated observation with no human augmentation;
there may or may not be significant weather present at this time

METAR text: KHAF 041540Z AUTO 05009KT 10SM BKN033 OVC039 12/10 A2982 RMK AO2
Conditions at: KHAF (HALF MOON BAY , CA, US) observed 1540 UTC 04 December 2019
Temperature: 12.0°C (54°F)
Dewpoint: 10.0°C (50°F) [RH = 88%]
Pressure (altimeter): 29.82 inches Hg (1009.9 mb)
Winds: from the NE (50 degrees) at 10 MPH (9 knots; 4.6 m/s)
Visibility: 10 or more miles (16+ km)
Ceiling: 3300 feet AGL
Clouds: broken clouds at 3300 feet AGL
overcast cloud deck at 3900 feet AGL
Weather: automated observation with no human augmentation;
there may or may not be significant weather present at this time

METAR text: KHAF 041535Z AUTO 05009KT 10SM OVC038 12/10 A2982 RMK AO2
Conditions at: KHAF (HALF MOON BAY , CA, US) observed 1535 UTC 04 December 2019
Temperature: 12.0°C (54°F)
Dewpoint: 10.0°C (50°F) [RH = 88%]
Pressure (altimeter): 29.82 inches Hg (1009.9 mb)
Winds: from the NE (50 degrees) at 10 MPH (9 knots; 4.6 m/s)
Visibility: 10 or more miles (16+ km)
Ceiling: 3800 feet AGL
Clouds: overcast cloud deck at 3800 feet AGL
Weather: automated observation with no human augmentation;
there may or may not be significant weather present at this time

METAR text: KHAF 041515Z AUTO 03006KT 10SM BKN024 OVC034 12/10 A2982 RMK AO2
Conditions at: KHAF (HALF MOON BAY , CA, US) observed 1515 UTC 04 December 2019
Temperature: 12.0°C (54°F)
Dewpoint: 10.0°C (50°F) [RH = 88%]
Pressure (altimeter): 29.82 inches Hg (1009.9 mb)
Winds: from the NNE (30 degrees) at 7 MPH (6 knots; 3.1 m/s)
Visibility: 10 or more miles (16+ km)
Ceiling: 2400 feet AGL
Clouds: broken clouds at 2400 feet AGL
overcast cloud deck at 3400 feet AGL
Weather: automated observation with no human augmentation;
there may or may not be significant weather present at this time

METAR text: KHAF 041500Z AUTO 00000KT 5SM BR OVC024 12/10 A2982 RMK AO2
Conditions at: KHAF (HALF MOON BAY , CA, US) observed 1500 UTC 04 December 2019
Temperature: 12.0°C (54°F)
Dewpoint: 10.0°C (50°F) [RH = 88%]
Pressure (altimeter): 29.82 inches Hg (1009.9 mb)
Winds: calm
Visibility: 5 miles ( 8 km)
Ceiling: 2400 feet AGL
Clouds: overcast cloud deck at 2400 feet AGL
Weather: BR  (mist)

METAR text: KHAF 041455Z AUTO 00000KT 6SM BR OVC024 12/10 A2982 RMK AO2
Conditions at: KHAF (HALF MOON BAY , CA, US) observed 1455 UTC 04 December 2019
Temperature: 12.0°C (54°F)
Dewpoint: 10.0°C (50°F) [RH = 88%]
Pressure (altimeter): 29.82 inches Hg (1009.9 mb)
Winds: calm
Visibility: 6 miles (10 km)
Ceiling: 2400 feet AGL
Clouds: overcast cloud deck at 2400 feet AGL
Weather: BR  (mist)

METAR text: KHAF 041440Z AUTO 00000KT 9SM BKN026 OVC034 12/10 A2982 RMK AO2
Conditions at: KHAF (HALF MOON BAY , CA, US) observed 1440 UTC 04 December 2019
Temperature: 12.0°C (54°F)
Dewpoint: 10.0°C (50°F) [RH = 88%]
Pressure (altimeter): 29.82 inches Hg (1009.9 mb)
Winds: calm
Visibility: 9 miles (14 km)
Ceiling: 2600 feet AGL
Clouds: broken clouds at 2600 feet AGL
overcast cloud deck at 3400 feet AGL
Weather: automated observation with no human augmentation;
there may or may not be significant weather present at this time

METAR text: KHAF 041435Z AUTO 00000KT 7SM BKN026 OVC034 12/10 A2982 RMK AO2
Conditions at: KHAF (HALF MOON BAY , CA, US) observed 1435 UTC 04 December 2019
Temperature: 12.0°C (54°F)
Dewpoint: 10.0°C (50°F) [RH = 88%]
Pressure (altimeter): 29.82 inches Hg (1009.9 mb)
Winds: calm
Visibility: 7 miles (11 km)
Ceiling: 2600 feet AGL
Clouds: broken clouds at 2600 feet AGL
overcast cloud deck at 3400 feet AGL
Weather: automated observation with no human augmentation;
there may or may not be significant weather present at this time

METAR text: KHAF 041420Z AUTO 04004KT 4SM BR SCT024 OVC034 12/10 A2982 RMK AO2
Conditions at: KHAF (HALF MOON BAY , CA, US) observed 1420 UTC 04 December 2019
Temperature: 12.0°C (54°F)
Dewpoint: 10.0°C (50°F) [RH = 88%]
Pressure (altimeter): 29.82 inches Hg (1009.9 mb)
Winds: from the NE (40 degrees) at 5 MPH (4 knots; 2.1 m/s)
Visibility: 4 miles ( 6 km)
Ceiling: 3400 feet AGL
Clouds: scattered clouds at 2400 feet AGL
overcast cloud deck at 3400 feet AGL
Weather: BR  (mist)

METAR text: KHAF 041415Z AUTO 05005KT 4SM BR SCT024 OVC034 12/10 A2982 RMK AO2
Conditions at: KHAF (HALF MOON BAY , CA, US) observed 1415 UTC 04 December 2019
Temperature: 12.0°C (54°F)
Dewpoint: 10.0°C (50°F) [RH = 88%]
Pressure (altimeter): 29.82 inches Hg (1009.9 mb)
Winds: from the NE (50 degrees) at 6 MPH (5 knots; 2.6 m/s)
Visibility: 4 miles ( 6 km)
Ceiling: 3400 feet AGL
Clouds: scattered clouds at 2400 feet AGL
overcast cloud deck at 3400 feet AGL
Weather: BR  (mist)

METAR text: KHAF 041400Z AUTO 04005KT 9SM SCT026 OVC035 12/10 A2982 RMK AO2 P0001
Conditions at: KHAF (HALF MOON BAY , CA, US) observed 1400 UTC 04 December 2019
Temperature: 12.0°C (54°F)
Dewpoint: 10.0°C (50°F) [RH = 88%]
Pressure (altimeter): 29.82 inches Hg (1009.9 mb)
Winds: from the NE (40 degrees) at 6 MPH (5 knots; 2.6 m/s)
Visibility: 9 miles (14 km)
Ceiling: 3500 feet AGL
Clouds: scattered clouds at 2600 feet AGL
overcast cloud deck at 3500 feet AGL
Weather: automated observation with no human augmentation;
there may or may not be significant weather present at this time

METAR text: KHAF 041355Z AUTO 01005KT 10SM SCT026 BKN032 OVC048 12/10 A2982 RMK AO2 P0001
Conditions at: KHAF (HALF MOON BAY , CA, US) observed 1355 UTC 04 December 2019
Temperature: 12.0°C (54°F)
Dewpoint: 10.0°C (50°F) [RH = 88%]
Pressure (altimeter): 29.82 inches Hg (1009.9 mb)
Winds: from the N (10 degrees) at 6 MPH (5 knots; 2.6 m/s)
Visibility: 10 or more miles (16+ km)
Ceiling: 3200 feet AGL
Clouds: scattered clouds at 2600 feet AGL
broken clouds at 3200 feet AGL
overcast cloud deck at 4800 feet AGL
Weather: automated observation with no human augmentation;
there may or may not be significant weather present at this time

METAR text: KHAF 041340Z AUTO 04003KT 5SM BR SCT024 BKN038 OVC048 12/11 A2982 RMK AO2 P0001
Conditions at: KHAF (HALF MOON BAY , CA, US) observed 1340 UTC 04 December 2019
Temperature: 12.0°C (54°F)
Dewpoint: 11.0°C (52°F) [RH = 94%]
Pressure (altimeter): 29.82 inches Hg (1009.9 mb)
Winds: from the NE (40 degrees) at 3 MPH (3 knots; 1.5 m/s)
Visibility: 5 miles ( 8 km)
Ceiling: 3800 feet AGL
Clouds: scattered clouds at 2400 feet AGL
broken clouds at 3800 feet AGL
overcast cloud deck at 4800 feet AGL
Weather: BR  (mist)

METAR text: KHAF 041335Z AUTO 31003KT 3SM BR SCT026 BKN030 OVC048 12/11 A2982 RMK AO2 P0001
Conditions at: KHAF (HALF MOON BAY , CA, US) observed 1335 UTC 04 December 2019
Temperature: 12.0°C (54°F)
Dewpoint: 11.0°C (52°F) [RH = 94%]
Pressure (altimeter): 29.82 inches Hg (1009.9 mb)
Winds: from the NW (310 degrees) at 3 MPH (3 knots; 1.5 m/s)
Visibility: 3 miles ( 5 km)
Ceiling: 3000 feet AGL
Clouds: scattered clouds at 2600 feet AGL
broken clouds at 3000 feet AGL
overcast cloud deck at 4800 feet AGL
Weather: BR  (mist)

METAR text: KHAF 041315Z AUTO 00000KT 2SM BR OVC028 12/11 A2983 RMK AO2 VSBY 1 1/2V4 P0001
Conditions at: KHAF (HALF MOON BAY , CA, US) observed 1315 UTC 04 December 2019
Temperature: 12.0°C (54°F)
Dewpoint: 11.0°C (52°F) [RH = 94%]
Pressure (altimeter): 29.83 inches Hg (1010.2 mb)
Winds: calm
Visibility: 2.00 miles (3.22 km)
Ceiling: 2800 feet AGL
Clouds: overcast cloud deck at 2800 feet AGL
Weather: BR  (mist)